<?xml version='1.0' encoding='UTF-8'?><gpx version="1.1" creator="JPX - https://github.com/jenetics/jpx" xmlns="http://www.topografix.com/GPX/1/1"><trk><trkseg><trkpt lat="44.9789531024718" lon="7.703751159975522"><ele>222.0</ele><time>2026-05-02T12:18:55Z</time></trkpt><trkpt lat="44.978836716870994" lon="7.703794682267104"><ele>222.0</ele><time>2026-05-02T12:18:57Z</time></trkpt><trkpt lat="44.97875050172133" lon="7.703824469295252"><ele>222.0</ele><time>2026-05-02T12:18:58Z</time></trkpt><trkpt lat="44.978656555590675" lon="7.703852367582053"><ele>222.0</ele><time>2026-05-02T12:18:59Z</time></trkpt><trkpt lat="44.978554168448916" lon="7.703887411394868"><ele>222.0</ele><time>2026-05-02T12:19:00Z</time></trkpt><trkpt lat="44.978442252664756" lon="7.703936953092699"><ele>222.0</ele><time>2026-05-02T12:19:01Z</time></trkpt><trkpt lat="44.978315093551764" lon="7.703983230518973"><ele>222.0</ele><time>2026-05-02T12:19:02Z</time></trkpt><trkpt lat="44.97816750021861" lon="7.704031181642504"><ele>222.0</ele><time>2026-05-02T12:19:03Z</time></trkpt><trkpt lat="44.97801831781212" lon="7.704081692043192"><ele>222.0</ele><time>2026-05-02T12:19:04Z</time></trkpt><trkpt lat="44.97787308964425" lon="7.70413242795296"><ele>222.0</ele><time>2026-05-02T12:19:05Z</time></trkpt><trkpt lat="44.97773019741554" lon="7.704183211204133"><ele>222.0</ele><time>2026-05-02T12:19:06Z</time></trkpt><trkpt lat="44.97757839993541" lon="7.704262833822513"><ele>222.0</ele><time>2026-05-02T12:19:07Z</time></trkpt><trkpt lat="44.97742790954142" lon="7.704345966737191"><ele>222.5</ele><time>2026-05-02T12:19:08Z</time></trkpt><trkpt lat="44.97728524120475" lon="7.704426441026254"><ele>223.0</ele><time>2026-05-02T12:19:09Z</time></trkpt><trkpt lat="44.97714532987312" lon="7.70449612868923"><ele>223.5</ele><time>2026-05-02T12:19:10Z</time></trkpt><trkpt lat="44.97700670707077" lon="7.70456562195402"><ele>224.0</ele><time>2026-05-02T12:19:11Z</time></trkpt><trkpt lat="44.97687868355432" lon="7.704635268069621"><ele>224.0</ele><time>2026-05-02T12:19:12Z</time></trkpt><trkpt lat="44.976745811887035" lon="7.704699575314987"><ele>224.0</ele><time>2026-05-02T12:19:13Z</time></trkpt><trkpt lat="44.97661601502907" lon="7.704772416604115"><ele>224.0</ele><time>2026-05-02T12:19:14Z</time></trkpt><trkpt lat="44.97648770008669" lon="7.704854238662292"><ele>224.0</ele><time>2026-05-02T12:19:15Z</time></trkpt><trkpt lat="44.97636690444539" lon="7.7049531059436065"><ele>223.75</ele><time>2026-05-02T12:19:16Z</time></trkpt><trkpt lat="44.97624813307718" lon="7.7050426718191005"><ele>223.5</ele><time>2026-05-02T12:19:17Z</time></trkpt><trkpt lat="44.97614496469772" lon="7.705132783603551"><ele>223.25</ele><time>2026-05-02T12:19:18Z</time></trkpt><trkpt lat="44.97605659747965" lon="7.705227152177694"><ele>223.0</ele><time>2026-05-02T12:19:19Z</time></trkpt><trkpt lat="44.97597381356454" lon="7.7053199997737245"><ele>223.0</ele><time>2026-05-02T12:19:20Z</time></trkpt><trkpt lat="44.975890751608674" lon="7.705383485279806"><ele>223.0</ele><time>2026-05-02T12:19:21Z</time></trkpt><trkpt lat="44.975797503149195" lon="7.7054306059097195"><ele>223.0</ele><time>2026-05-02T12:19:22Z</time></trkpt><trkpt lat="44.97567606926656" lon="7.705435597542984"><ele>223.0</ele><time>2026-05-02T12:19:23Z</time></trkpt><trkpt lat="44.9755410680303" lon="7.705459904071605"><ele>223.0</ele><time>2026-05-02T12:19:24Z</time></trkpt><trkpt lat="44.97539568382228" lon="7.705530607653307"><ele>223.0</ele><time>2026-05-02T12:19:25Z</time></trkpt><trkpt lat="44.97523932076906" lon="7.705625896129094"><ele>223.0</ele><time>2026-05-02T12:19:26Z</time></trkpt><trkpt lat="44.975063116180415" lon="7.705724176536301"><ele>223.33333333333331</ele><time>2026-05-02T12:19:27Z</time></trkpt><trkpt lat="44.97488022685613" lon="7.705823872398107"><ele>223.66666666666669</ele><time>2026-05-02T12:19:28Z</time></trkpt><trkpt lat="44.97468312002579" lon="7.705938817003533"><ele>224.0</ele><time>2026-05-02T12:19:29Z</time></trkpt><trkpt lat="44.97447801605088" lon="7.706056534604814"><ele>225.5</ele><time>2026-05-02T12:19:30Z</time></trkpt><trkpt lat="44.974265753993016" lon="7.706172967956472"><ele>227.0</ele><time>2026-05-02T12:19:31Z</time></trkpt><trkpt lat="44.974045548388276" lon="7.706295822211387"><ele>227.0</ele><time>2026-05-02T12:19:32Z</time></trkpt><trkpt lat="44.97382141595435" lon="7.706419567155957"><ele>227.0</ele><time>2026-05-02T12:19:33Z</time></trkpt><trkpt lat="44.97359398973055" lon="7.7065466539700145"><ele>227.0</ele><time>2026-05-02T12:19:34Z</time></trkpt><trkpt lat="44.97336249147662" lon="7.7066753923989735"><ele>227.0</ele><time>2026-05-02T12:19:35Z</time></trkpt><trkpt lat="44.97312856141571" lon="7.7068076518615385"><ele>226.5</ele><time>2026-05-02T12:19:36Z</time></trkpt><trkpt lat="44.972890609795186" lon="7.70693447908669"><ele>226.0</ele><time>2026-05-02T12:19:37Z</time></trkpt><trkpt lat="44.972649928437114" lon="7.70705619670127"><ele>224.0</ele><time>2026-05-02T12:19:38Z</time></trkpt><trkpt lat="44.97241101438296" lon="7.707177204520931"><ele>222.0</ele><time>2026-05-02T12:19:39Z</time></trkpt><trkpt lat="44.97217549472473" lon="7.707293859472602"><ele>222.0</ele><time>2026-05-02T12:19:40Z</time></trkpt><trkpt lat="44.97194305033947" lon="7.707408195384915"><ele>222.0</ele><time>2026-05-02T12:19:41Z</time></trkpt><trkpt lat="44.971708820098335" lon="7.7075220014168915"><ele>223.0</ele><time>2026-05-02T12:19:42Z</time></trkpt><trkpt lat="44.97147108377513" lon="7.707632759949304"><ele>224.0</ele><time>2026-05-02T12:19:43Z</time></trkpt><trkpt lat="44.97123879138266" lon="7.707745038408551"><ele>224.0</ele><time>2026-05-02T12:19:44Z</time></trkpt><trkpt lat="44.97100017286429" lon="7.7078590763449695"><ele>224.0</ele><time>2026-05-02T12:19:45Z</time></trkpt><trkpt lat="44.970762762990006" lon="7.707970408538307"><ele>225.0</ele><time>2026-05-02T12:19:46Z</time></trkpt><trkpt lat="44.97052135204846" lon="7.708084943458055"><ele>226.0</ele><time>2026-05-02T12:19:47Z</time></trkpt><trkpt lat="44.97027879863198" lon="7.70820077848618"><ele>226.0</ele><time>2026-05-02T12:19:48Z</time></trkpt><trkpt lat="44.9700377716443" lon="7.708316798753597"><ele>226.0</ele><time>2026-05-02T12:19:49Z</time></trkpt><trkpt lat="44.96979529434725" lon="7.708434894503959"><ele>226.0</ele><time>2026-05-02T12:19:50Z</time></trkpt><trkpt lat="44.969552209383636" lon="7.708546823713634"><ele>226.0</ele><time>2026-05-02T12:19:51Z</time></trkpt><trkpt lat="44.969311845812214" lon="7.708662532688596"><ele>224.0</ele><time>2026-05-02T12:19:52Z</time></trkpt><trkpt lat="44.96906749447729" lon="7.708783409392289"><ele>222.0</ele><time>2026-05-02T12:19:53Z</time></trkpt><trkpt lat="44.96882317254988" lon="7.708901246089619"><ele>222.0</ele><time>2026-05-02T12:19:54Z</time></trkpt><trkpt lat="44.96858093913652" lon="7.709020168424927"><ele>222.0</ele><time>2026-05-02T12:19:55Z</time></trkpt><trkpt lat="44.96835602746621" lon="7.709125939715165"><ele>222.0</ele><time>2026-05-02T12:19:56Z</time></trkpt><trkpt lat="44.96814075462184" lon="7.70922548282478"><ele>222.0</ele><time>2026-05-02T12:19:57Z</time></trkpt><trkpt lat="44.96793817832976" lon="7.7093203335350395"><ele>222.0</ele><time>2026-05-02T12:19:58Z</time></trkpt><trkpt lat="44.96773728566285" lon="7.709409884402782"><ele>222.0</ele><time>2026-05-02T12:19:59Z</time></trkpt><trkpt lat="44.967535853663875" lon="7.709498447148495"><ele>222.0</ele><time>2026-05-02T12:20:00Z</time></trkpt><trkpt lat="44.96733572544801" lon="7.709571258385697"><ele>222.0</ele><time>2026-05-02T12:20:01Z</time></trkpt><trkpt lat="44.967127825689616" lon="7.709634087529888"><ele>222.0</ele><time>2026-05-02T12:20:02Z</time></trkpt><trkpt lat="44.96691501722108" lon="7.709682144192832"><ele>222.0</ele><time>2026-05-02T12:20:03Z</time></trkpt><trkpt lat="44.96669971931325" lon="7.709708042281786"><ele>222.0</ele><time>2026-05-02T12:20:04Z</time></trkpt><trkpt lat="44.96648216910622" lon="7.709722894860376"><ele>222.66666666666669</ele><time>2026-05-02T12:20:05Z</time></trkpt><trkpt lat="44.9662629777096" lon="7.709732648969817"><ele>223.33333333333334</ele><time>2026-05-02T12:20:06Z</time></trkpt><trkpt lat="44.96605287513973" lon="7.709737839378108"><ele>224.0</ele><time>2026-05-02T12:20:06.999Z</time></trkpt><trkpt lat="44.96585448388192" lon="7.7097149093164274"><ele>224.66666666666669</ele><time>2026-05-02T12:20:07.999Z</time></trkpt><trkpt lat="44.96566239680363" lon="7.709714032175559"><ele>225.33333333333331</ele><time>2026-05-02T12:20:08.999Z</time></trkpt><trkpt lat="44.96548178422159" lon="7.7097132074311805"><ele>226.0</ele><time>2026-05-02T12:20:09.999Z</time></trkpt><trkpt lat="44.965291863197415" lon="7.709712340180294"><ele>226.0</ele><time>2026-05-02T12:20:10.999Z</time></trkpt><trkpt lat="44.965090697615466" lon="7.7097483184860645"><ele>226.0</ele><time>2026-05-02T12:20:11.999Z</time></trkpt><trkpt lat="44.96487528910073" lon="7.709745126615188"><ele>226.0</ele><time>2026-05-02T12:20:12.999Z</time></trkpt><trkpt lat="44.96465129273642" lon="7.709740699467289"><ele>225.5</ele><time>2026-05-02T12:20:13.999Z</time></trkpt><trkpt lat="44.96441646988941" lon="7.709742867365993"><ele>225.0</ele><time>2026-05-02T12:20:14.999Z</time></trkpt><trkpt lat="44.964181302905594" lon="7.709737713698977"><ele>224.66666666666669</ele><time>2026-05-02T12:20:15.999Z</time></trkpt><trkpt lat="44.96396241855762" lon="7.709738229927886"><ele>224.33333333333334</ele><time>2026-05-02T12:20:16.999Z</time></trkpt><trkpt lat="44.96374874555763" lon="7.70974240658404"><ele>224.0</ele><time>2026-05-02T12:20:17.999Z</time></trkpt><trkpt lat="44.963528243374" lon="7.709744814411952"><ele>223.5</ele><time>2026-05-02T12:20:18.999Z</time></trkpt><trkpt lat="44.96330256985262" lon="7.709744662203231"><ele>223.0</ele><time>2026-05-02T12:20:19.999Z</time></trkpt><trkpt lat="44.963073594099306" lon="7.70974742490718"><ele>223.0</ele><time>2026-05-02T12:20:20.999Z</time></trkpt><trkpt lat="44.96284029687515" lon="7.709767059904707"><ele>223.0</ele><time>2026-05-02T12:20:21.999Z</time></trkpt><trkpt lat="44.96259717536157" lon="7.709799396249577"><ele>223.5</ele><time>2026-05-02T12:20:22.999Z</time></trkpt><trkpt lat="44.96235160346487" lon="7.709838267241342"><ele>224.0</ele><time>2026-05-02T12:20:23.999Z</time></trkpt><trkpt lat="44.962099831530296" lon="7.709888096108715"><ele>224.0</ele><time>2026-05-02T12:20:24.999Z</time></trkpt><trkpt lat="44.96182819274864" lon="7.7099545632540005"><ele>224.0</ele><time>2026-05-02T12:20:25.999Z</time></trkpt><trkpt lat="44.96155452140974" lon="7.710026209863963"><ele>223.0</ele><time>2026-05-02T12:20:26.999Z</time></trkpt><trkpt lat="44.96130278920625" lon="7.710088059002925"><ele>222.0</ele><time>2026-05-02T12:20:27.999Z</time></trkpt><trkpt lat="44.96107243070557" lon="7.7101692681688965"><ele>223.5</ele><time>2026-05-02T12:20:29Z</time></trkpt><trkpt lat="44.96084831355299" lon="7.710265516039936"><ele>225.0</ele><time>2026-05-02T12:20:30Z</time></trkpt><trkpt lat="44.960613833988376" lon="7.710364212724136"><ele>225.0</ele><time>2026-05-02T12:20:31Z</time></trkpt><trkpt lat="44.96038253004298" lon="7.710477729209715"><ele>225.0</ele><time>2026-05-02T12:20:32Z</time></trkpt><trkpt lat="44.9601641278658" lon="7.710592843079635"><ele>224.66666666666669</ele><time>2026-05-02T12:20:33Z</time></trkpt><trkpt lat="44.95996498940826" lon="7.710701795804293"><ele>224.33333333333334</ele><time>2026-05-02T12:20:34Z</time></trkpt><trkpt lat="44.95977546614536" lon="7.71081548361344"><ele>224.0</ele><time>2026-05-02T12:20:35Z</time></trkpt><trkpt lat="44.959584669542984" lon="7.7109396538994845"><ele>224.0</ele><time>2026-05-02T12:20:36Z</time></trkpt><trkpt lat="44.95938941628122" lon="7.711080451733028"><ele>224.0</ele><time>2026-05-02T12:20:37Z</time></trkpt><trkpt lat="44.95918496305362" lon="7.711235049399362"><ele>223.0</ele><time>2026-05-02T12:20:38Z</time></trkpt><trkpt lat="44.95897161128626" lon="7.711395427886853"><ele>222.0</ele><time>2026-05-02T12:20:39Z</time></trkpt><trkpt lat="44.958752139844314" lon="7.711561559843324"><ele>222.0</ele><time>2026-05-02T12:20:40Z</time></trkpt><trkpt lat="44.95854230107981" lon="7.711717570343367"><ele>222.0</ele><time>2026-05-02T12:20:41Z</time></trkpt><trkpt lat="44.95833978939289" lon="7.711874144075438"><ele>223.0</ele><time>2026-05-02T12:20:42Z</time></trkpt><trkpt lat="44.95812413407069" lon="7.712034122860469"><ele>224.0</ele><time>2026-05-02T12:20:43Z</time></trkpt><trkpt lat="44.957901774314365" lon="7.712192245075552"><ele>224.0</ele><time>2026-05-02T12:20:44Z</time></trkpt><trkpt lat="44.95767786883135" lon="7.712352528174717"><ele>224.0</ele><time>2026-05-02T12:20:45Z</time></trkpt><trkpt lat="44.957453974709985" lon="7.712519318744686"><ele>223.5</ele><time>2026-05-02T12:20:46Z</time></trkpt><trkpt lat="44.957228355435475" lon="7.712686190109502"><ele>223.0</ele><time>2026-05-02T12:20:47Z</time></trkpt><trkpt lat="44.95700050616973" lon="7.71284909142351"><ele>223.0</ele><time>2026-05-02T12:20:48Z</time></trkpt><trkpt lat="44.956769280863114" lon="7.713015199292543"><ele>223.0</ele><time>2026-05-02T12:20:49Z</time></trkpt><trkpt lat="44.95654086534508" lon="7.713179733825837"><ele>223.5</ele><time>2026-05-02T12:20:50Z</time></trkpt><trkpt lat="44.95631987421187" lon="7.713343290671303"><ele>224.0</ele><time>2026-05-02T12:20:51Z</time></trkpt><trkpt lat="44.95610010433988" lon="7.713509210783042"><ele>224.5</ele><time>2026-05-02T12:20:52Z</time></trkpt><trkpt lat="44.95587836848437" lon="7.713672877811115"><ele>225.0</ele><time>2026-05-02T12:20:53Z</time></trkpt><trkpt lat="44.955658599247215" lon="7.7138384023978865"><ele>225.5</ele><time>2026-05-02T12:20:54Z</time></trkpt><trkpt lat="44.95544114495155" lon="7.714002727703443"><ele>226.0</ele><time>2026-05-02T12:20:55Z</time></trkpt><trkpt lat="44.95522612966323" lon="7.714160177227433"><ele>225.5</ele><time>2026-05-02T12:20:56Z</time></trkpt><trkpt lat="44.95501679014481" lon="7.7143176586283"><ele>225.0</ele><time>2026-05-02T12:20:57Z</time></trkpt><trkpt lat="44.95480317816105" lon="7.714479344005307"><ele>225.0</ele><time>2026-05-02T12:20:58Z</time></trkpt><trkpt lat="44.95458423203297" lon="7.714643950620862"><ele>225.0</ele><time>2026-05-02T12:20:59Z</time></trkpt><trkpt lat="44.95436442581071" lon="7.714805887725229"><ele>224.5</ele><time>2026-05-02T12:21:00Z</time></trkpt><trkpt lat="44.95414594445479" lon="7.714966765047997"><ele>224.0</ele><time>2026-05-02T12:21:01Z</time></trkpt><trkpt lat="44.953941475797045" lon="7.715120353858786"><ele>224.0</ele><time>2026-05-02T12:21:02Z</time></trkpt><trkpt lat="44.95375273150334" lon="7.715265005034577"><ele>224.0</ele><time>2026-05-02T12:21:03Z</time></trkpt><trkpt lat="44.953580113156605" lon="7.715394857972432"><ele>224.0</ele><time>2026-05-02T12:21:04Z</time></trkpt><trkpt lat="44.95342251848271" lon="7.715515661038966"><ele>224.33333333333334</ele><time>2026-05-02T12:21:05Z</time></trkpt><trkpt lat="44.953259470816164" lon="7.715644425590315"><ele>224.66666666666669</ele><time>2026-05-02T12:21:06Z</time></trkpt><trkpt lat="44.953085515575054" lon="7.715772836101201"><ele>225.0</ele><time>2026-05-02T12:21:07Z</time></trkpt><trkpt lat="44.95291880013063" lon="7.715892862825705"><ele>225.0</ele><time>2026-05-02T12:21:08Z</time></trkpt><trkpt lat="44.95274635618908" lon="7.716025667942813"><ele>225.0</ele><time>2026-05-02T12:21:09Z</time></trkpt><trkpt lat="44.9525614539654" lon="7.716162732135591"><ele>225.0</ele><time>2026-05-02T12:21:10Z</time></trkpt><trkpt lat="44.95236025109434" lon="7.7163049123566285"><ele>223.5</ele><time>2026-05-02T12:21:11Z</time></trkpt><trkpt lat="44.95215192761763" lon="7.7164545464743535"><ele>222.0</ele><time>2026-05-02T12:21:12Z</time></trkpt><trkpt lat="44.951937247613735" lon="7.716619751442166"><ele>222.0</ele><time>2026-05-02T12:21:13Z</time></trkpt><trkpt lat="44.951721725314954" lon="7.716781972458618"><ele>222.0</ele><time>2026-05-02T12:21:14Z</time></trkpt><trkpt lat="44.95150109891545" lon="7.7169437294090315"><ele>223.5</ele><time>2026-05-02T12:21:15Z</time></trkpt><trkpt lat="44.95127767544988" lon="7.717109197301656"><ele>225.0</ele><time>2026-05-02T12:21:16Z</time></trkpt><trkpt lat="44.95105224670781" lon="7.7172795566637795"><ele>224.0</ele><time>2026-05-02T12:21:17Z</time></trkpt><trkpt lat="44.95083112819885" lon="7.717445373357957"><ele>223.0</ele><time>2026-05-02T12:21:18Z</time></trkpt><trkpt lat="44.950608623118285" lon="7.717612018595545"><ele>224.0</ele><time>2026-05-02T12:21:19Z</time></trkpt><trkpt lat="44.950385639003926" lon="7.717777150187832"><ele>225.0</ele><time>2026-05-02T12:21:20Z</time></trkpt><trkpt lat="44.95016169517458" lon="7.717915503875934"><ele>224.5</ele><time>2026-05-02T12:21:21Z</time></trkpt><trkpt lat="44.94992371663579" lon="7.718020958214115"><ele>224.0</ele><time>2026-05-02T12:21:22Z</time></trkpt><trkpt lat="44.94967284944478" lon="7.718091742073827"><ele>224.0</ele><time>2026-05-02T12:21:23Z</time></trkpt><trkpt lat="44.949414874424946" lon="7.718102253222173"><ele>224.0</ele><time>2026-05-02T12:21:24Z</time></trkpt><trkpt lat="44.94915457321883" lon="7.718120917293425"><ele>224.0</ele><time>2026-05-02T12:21:25Z</time></trkpt><trkpt lat="44.94889046908397" lon="7.718156095357168"><ele>224.0</ele><time>2026-05-02T12:21:26Z</time></trkpt><trkpt lat="44.948628339614956" lon="7.718176006847753"><ele>224.0</ele><time>2026-05-02T12:21:27Z</time></trkpt><trkpt lat="44.94836408997755" lon="7.718189997319568"><ele>224.0</ele><time>2026-05-02T12:21:28Z</time></trkpt><trkpt lat="44.948096657611266" lon="7.718210160731542"><ele>224.0</ele><time>2026-05-02T12:21:29Z</time></trkpt><trkpt lat="44.9478348966922" lon="7.7182273798140555"><ele>224.0</ele><time>2026-05-02T12:21:30Z</time></trkpt><trkpt lat="44.94758265916009" lon="7.718302685896977"><ele>224.0</ele><time>2026-05-02T12:21:31Z</time></trkpt><trkpt lat="44.947338930080555" lon="7.718412383965187"><ele>224.0</ele><time>2026-05-02T12:21:32Z</time></trkpt><trkpt lat="44.9471193945262" lon="7.718550154468347"><ele>224.0</ele><time>2026-05-02T12:21:33Z</time></trkpt><trkpt lat="44.94692747445197" lon="7.718707956970981"><ele>224.0</ele><time>2026-05-02T12:21:34Z</time></trkpt><trkpt lat="44.94677181787195" lon="7.718889858148688"><ele>224.0</ele><time>2026-05-02T12:21:35Z</time></trkpt><trkpt lat="44.946629709374264" lon="7.71904122673933"><ele>224.0</ele><time>2026-05-02T12:21:36Z</time></trkpt><trkpt lat="44.94650632259105" lon="7.719174742034115"><ele>224.0</ele><time>2026-05-02T12:21:37Z</time></trkpt><trkpt lat="44.94639738601482" lon="7.719279453977186"><ele>224.0</ele><time>2026-05-02T12:21:38Z</time></trkpt><trkpt lat="44.94628726012049" lon="7.7193526184050185"><ele>224.0</ele><time>2026-05-02T12:21:39Z</time></trkpt><trkpt lat="44.94617364976957" lon="7.719370021865228"><ele>224.0</ele><time>2026-05-02T12:21:40Z</time></trkpt><trkpt lat="44.94606589798908" lon="7.719358834213054"><ele>224.0</ele><time>2026-05-02T12:21:41Z</time></trkpt><trkpt lat="44.94595735970966" lon="7.719428181565879"><ele>224.0</ele><time>2026-05-02T12:21:42Z</time></trkpt><trkpt lat="44.945882517193056" lon="7.719570171870303"><ele>224.0</ele><time>2026-05-02T12:21:43Z</time></trkpt><trkpt lat="44.94587017531703" lon="7.719788267177138"><ele>224.33333333333334</ele><time>2026-05-02T12:21:44Z</time></trkpt><trkpt lat="44.94580201733978" lon="7.719979083269948"><ele>224.66666666666669</ele><time>2026-05-02T12:21:44.999Z</time></trkpt><trkpt lat="44.94569946483555" lon="7.720163652728659"><ele>225.0</ele><time>2026-05-02T12:21:45.999Z</time></trkpt><trkpt lat="44.945549420064715" lon="7.7203381343459085"><ele>225.0</ele><time>2026-05-02T12:21:46.999Z</time></trkpt><trkpt lat="44.94538463489472" lon="7.720513993320766"><ele>225.0</ele><time>2026-05-02T12:21:47.999Z</time></trkpt><trkpt lat="44.94521718014517" lon="7.7206980083977355"><ele>225.0</ele><time>2026-05-02T12:21:48.999Z</time></trkpt><trkpt lat="44.94505131472723" lon="7.720892898574047"><ele>225.0</ele><time>2026-05-02T12:21:49.999Z</time></trkpt><trkpt lat="44.94487840299385" lon="7.721102504480705"><ele>225.0</ele><time>2026-05-02T12:21:50.999Z</time></trkpt><trkpt lat="44.944701275758455" lon="7.7213114696043466"><ele>225.0</ele><time>2026-05-02T12:21:51.999Z</time></trkpt><trkpt lat="44.94452544285961" lon="7.721524843789077"><ele>225.0</ele><time>2026-05-02T12:21:52.999Z</time></trkpt><trkpt lat="44.94434955501268" lon="7.721750443753885"><ele>225.0</ele><time>2026-05-02T12:21:53.999Z</time></trkpt><trkpt lat="44.94416890953324" lon="7.721975145676373"><ele>225.0</ele><time>2026-05-02T12:21:54.999Z</time></trkpt><trkpt lat="44.94397968905879" lon="7.722206056757238"><ele>225.0</ele><time>2026-05-02T12:21:55.999Z</time></trkpt><trkpt lat="44.94378947210054" lon="7.722435191140281"><ele>225.0</ele><time>2026-05-02T12:21:56.999Z</time></trkpt><trkpt lat="44.943590175536386" lon="7.722664294895449"><ele>224.5</ele><time>2026-05-02T12:21:57.999Z</time></trkpt><trkpt lat="44.94338540307004" lon="7.722885585888787"><ele>224.0</ele><time>2026-05-02T12:21:58.999Z</time></trkpt><trkpt lat="44.943188000058335" lon="7.723101075862339"><ele>224.0</ele><time>2026-05-02T12:21:59.999Z</time></trkpt><trkpt lat="44.94297335033354" lon="7.72328896928528"><ele>224.0</ele><time>2026-05-02T12:22:00.999Z</time></trkpt><trkpt lat="44.942759305572324" lon="7.723475194596952"><ele>225.0</ele><time>2026-05-02T12:22:01.999Z</time></trkpt><trkpt lat="44.942541237278505" lon="7.723672498560709"><ele>226.0</ele><time>2026-05-02T12:22:02.999Z</time></trkpt><trkpt lat="44.94230971175606" lon="7.723842455097118"><ele>226.0</ele><time>2026-05-02T12:22:03.999Z</time></trkpt><trkpt lat="44.942082162673465" lon="7.724014530606865"><ele>226.0</ele><time>2026-05-02T12:22:04.999Z</time></trkpt><trkpt lat="44.941854791474576" lon="7.724160063428521"><ele>226.0</ele><time>2026-05-02T12:22:05.999Z</time></trkpt><trkpt lat="44.94164339491996" lon="7.724317001170408"><ele>226.0</ele><time>2026-05-02T12:22:06.999Z</time></trkpt><trkpt lat="44.941437930347256" lon="7.724468724382497"><ele>225.0</ele><time>2026-05-02T12:22:07.999Z</time></trkpt><trkpt lat="44.94124310227084" lon="7.7246139487365335"><ele>224.0</ele><time>2026-05-02T12:22:08.999Z</time></trkpt><trkpt lat="44.941038159184835" lon="7.724766713000262"><ele>226.0</ele><time>2026-05-02T12:22:09.999Z</time></trkpt><trkpt lat="44.94082554841066" lon="7.724925192658665"><ele>228.0</ele><time>2026-05-02T12:22:10.999Z</time></trkpt><trkpt lat="44.940605491382414" lon="7.725089222781989"><ele>226.5</ele><time>2026-05-02T12:22:11.999Z</time></trkpt><trkpt lat="44.94038687994376" lon="7.725252175263372"><ele>225.0</ele><time>2026-05-02T12:22:12.999Z</time></trkpt><trkpt lat="44.940186805517016" lon="7.725401310227287"><ele>226.0</ele><time>2026-05-02T12:22:13.999Z</time></trkpt><trkpt lat="44.94000293250602" lon="7.7255383689149815"><ele>227.0</ele><time>2026-05-02T12:22:14.999Z</time></trkpt><trkpt lat="44.93983958267746" lon="7.725660129494702"><ele>228.0</ele><time>2026-05-02T12:22:15.999Z</time></trkpt><trkpt lat="44.93970611382251" lon="7.725759616902189"><ele>228.0</ele><time>2026-05-02T12:22:16.999Z</time></trkpt><trkpt lat="44.93960311231214" lon="7.725836394041426"><ele>228.0</ele><time>2026-05-02T12:22:17.999Z</time></trkpt><trkpt lat="44.93950977504147" lon="7.7259059675587025"><ele>228.0</ele><time>2026-05-02T12:22:18.999Z</time></trkpt><trkpt lat="44.9394144450217" lon="7.725976750627988"><ele>228.0</ele><time>2026-05-02T12:22:19.999Z</time></trkpt><trkpt lat="44.939332296819224" lon="7.726063930994987"><ele>228.0</ele><time>2026-05-02T12:22:20.999Z</time></trkpt><trkpt lat="44.93923721686386" lon="7.726120547556848"><ele>227.60000000000002</ele><time>2026-05-02T12:22:21.999Z</time></trkpt><trkpt lat="44.93913936486806" lon="7.726173357638552"><ele>227.20000000000002</ele><time>2026-05-02T12:22:22.999Z</time></trkpt><trkpt lat="44.93904309396725" lon="7.726220623448822"><ele>226.8</ele><time>2026-05-02T12:22:23.999Z</time></trkpt><trkpt lat="44.93895118420613" lon="7.726262170080398"><ele>226.4</ele><time>2026-05-02T12:22:24.999Z</time></trkpt><trkpt lat="44.93886179671638" lon="7.726291768739802"><ele>226.0</ele><time>2026-05-02T12:22:25.999Z</time></trkpt><trkpt lat="44.93877813597155" lon="7.726307014122759"><ele>225.99999999999997</ele><time>2026-05-02T12:22:26.999Z</time></trkpt><trkpt lat="44.938701209019385" lon="7.726307017347858"><ele>226.0</ele><time>2026-05-02T12:22:27.999Z</time></trkpt><trkpt lat="44.93861953322629" lon="7.72628986580237"><ele>226.0</ele><time>2026-05-02T12:22:28.999Z</time></trkpt><trkpt lat="44.93854242348213" lon="7.7262691795551675"><ele>226.0</ele><time>2026-05-02T12:22:29.999Z</time></trkpt><trkpt lat="44.93846409668941" lon="7.726265777586884"><ele>225.99999999999997</ele><time>2026-05-02T12:22:30.999Z</time></trkpt><trkpt lat="44.93838344772574" lon="7.726287427180704"><ele>226.0</ele><time>2026-05-02T12:22:31.999Z</time></trkpt><trkpt lat="44.93833491337149" lon="7.726426532376209"><ele>225.8</ele><time>2026-05-02T12:22:32.999Z</time></trkpt><trkpt lat="44.93829714799429" lon="7.726563290112671"><ele>225.60000000000002</ele><time>2026-05-02T12:22:33.999Z</time></trkpt><trkpt lat="44.938245851255616" lon="7.726692145419539"><ele>225.4</ele><time>2026-05-02T12:22:34.999Z</time></trkpt><trkpt lat="44.938168529181475" lon="7.726807549295821"><ele>225.2</ele><time>2026-05-02T12:22:35.999Z</time></trkpt><trkpt lat="44.93807827818877" lon="7.726922289300773"><ele>225.0</ele><time>2026-05-02T12:22:36.999Z</time></trkpt><trkpt lat="44.937979353006156" lon="7.727034826416407"><ele>224.75</ele><time>2026-05-02T12:22:37.999Z</time></trkpt><trkpt lat="44.93786962243612" lon="7.727143203761635"><ele>224.5</ele><time>2026-05-02T12:22:38.999Z</time></trkpt><trkpt lat="44.93775198421601" lon="7.727251760269884"><ele>224.25</ele><time>2026-05-02T12:22:39.999Z</time></trkpt><trkpt lat="44.93761849481171" lon="7.727355851463783"><ele>224.0</ele><time>2026-05-02T12:22:40.999Z</time></trkpt><trkpt lat="44.937477500048345" lon="7.7274694113876565"><ele>224.0</ele><time>2026-05-02T12:22:41.999Z</time></trkpt><trkpt lat="44.937316868250456" lon="7.72758567559003"><ele>224.0</ele><time>2026-05-02T12:22:42.999Z</time></trkpt><trkpt lat="44.93713357843492" lon="7.727715641030409"><ele>224.0</ele><time>2026-05-02T12:22:43.999Z</time></trkpt><trkpt lat="44.93692838795411" lon="7.727830606260759"><ele>224.0</ele><time>2026-05-02T12:22:45Z</time></trkpt><trkpt lat="44.936727203379746" lon="7.727980900592978"><ele>224.0</ele><time>2026-05-02T12:22:46Z</time></trkpt><trkpt lat="44.93652014648734" lon="7.728152681515713"><ele>225.0</ele><time>2026-05-02T12:22:47Z</time></trkpt><trkpt lat="44.93630213294152" lon="7.728310762124263"><ele>226.0</ele><time>2026-05-02T12:22:48Z</time></trkpt><trkpt lat="44.93607947995929" lon="7.728478213442171"><ele>226.0</ele><time>2026-05-02T12:22:49Z</time></trkpt><trkpt lat="44.935854920214915" lon="7.728644515721708"><ele>226.0</ele><time>2026-05-02T12:22:50Z</time></trkpt><trkpt lat="44.935626317431385" lon="7.728816599980191"><ele>226.0</ele><time>2026-05-02T12:22:51Z</time></trkpt><trkpt lat="44.935394744201204" lon="7.728993185233477"><ele>226.0</ele><time>2026-05-02T12:22:52Z</time></trkpt><trkpt lat="44.93516135932744" lon="7.729169246615858"><ele>227.0</ele><time>2026-05-02T12:22:53Z</time></trkpt><trkpt lat="44.934940485884425" lon="7.7293353659379065"><ele>228.0</ele><time>2026-05-02T12:22:54Z</time></trkpt><trkpt lat="44.93473604933688" lon="7.729484136090028"><ele>228.0</ele><time>2026-05-02T12:22:55Z</time></trkpt><trkpt lat="44.93454836143814" lon="7.7296255562335565"><ele>228.0</ele><time>2026-05-02T12:22:56Z</time></trkpt><trkpt lat="44.93437978384612" lon="7.729750445323031"><ele>228.0</ele><time>2026-05-02T12:22:57Z</time></trkpt><trkpt lat="44.93422473588873" lon="7.729862501241825"><ele>227.75</ele><time>2026-05-02T12:22:58Z</time></trkpt><trkpt lat="44.934091191273865" lon="7.729948176400769"><ele>227.5</ele><time>2026-05-02T12:22:59Z</time></trkpt><trkpt lat="44.93396015195529" lon="7.730019798307848"><ele>227.25</ele><time>2026-05-02T12:23:00Z</time></trkpt><trkpt lat="44.933830472018315" lon="7.730066013415085"><ele>227.0</ele><time>2026-05-02T12:23:01Z</time></trkpt><trkpt lat="44.93370662754401" lon="7.73008793874358"><ele>227.0</ele><time>2026-05-02T12:23:02Z</time></trkpt><trkpt lat="44.933597086557256" lon="7.730079469390232"><ele>227.0</ele><time>2026-05-02T12:23:03Z</time></trkpt><trkpt lat="44.93351278532638" lon="7.730027434819312"><ele>227.0</ele><time>2026-05-02T12:23:04Z</time></trkpt><trkpt lat="44.93343089573138" lon="7.73004057807694"><ele>227.0</ele><time>2026-05-02T12:23:05Z</time></trkpt><trkpt lat="44.93335964720729" lon="7.730164669526463"><ele>227.0</ele><time>2026-05-02T12:23:06Z</time></trkpt><trkpt lat="44.93330539352662" lon="7.730326662559969"><ele>227.66666666666669</ele><time>2026-05-02T12:23:07Z</time></trkpt><trkpt lat="44.93323594920066" lon="7.730484099637277"><ele>228.33333333333331</ele><time>2026-05-02T12:23:08Z</time></trkpt><trkpt lat="44.93312266962004" lon="7.730642599576978"><ele>229.0</ele><time>2026-05-02T12:23:09Z</time></trkpt><trkpt lat="44.932980475280864" lon="7.730794597095516"><ele>229.0</ele><time>2026-05-02T12:23:10Z</time></trkpt><trkpt lat="44.9328083867972" lon="7.730901521013049"><ele>229.0</ele><time>2026-05-02T12:23:11Z</time></trkpt><trkpt lat="44.93264803794541" lon="7.7310437047288145"><ele>229.0</ele><time>2026-05-02T12:23:12Z</time></trkpt><trkpt lat="44.93246859153978" lon="7.731173190256866"><ele>229.0</ele><time>2026-05-02T12:23:13Z</time></trkpt><trkpt lat="44.93227902898443" lon="7.731314760425985"><ele>229.0</ele><time>2026-05-02T12:23:14Z</time></trkpt><trkpt lat="44.93208190542507" lon="7.731459861390992"><ele>229.0</ele><time>2026-05-02T12:23:15Z</time></trkpt><trkpt lat="44.93187523296152" lon="7.731612564397777"><ele>229.0</ele><time>2026-05-02T12:23:16Z</time></trkpt><trkpt lat="44.931671256816145" lon="7.731761554285749"><ele>229.0</ele><time>2026-05-02T12:23:17Z</time></trkpt><trkpt lat="44.931467630669005" lon="7.731919937868204"><ele>227.5</ele><time>2026-05-02T12:23:18Z</time></trkpt><trkpt lat="44.93125666990552" lon="7.732085014133923"><ele>226.0</ele><time>2026-05-02T12:23:19Z</time></trkpt><trkpt lat="44.931041634758074" lon="7.732249996474866"><ele>227.0</ele><time>2026-05-02T12:23:20Z</time></trkpt><trkpt lat="44.93082396749457" lon="7.732414238386791"><ele>228.0</ele><time>2026-05-02T12:23:21Z</time></trkpt><trkpt lat="44.93060729405741" lon="7.732573676947948"><ele>228.0</ele><time>2026-05-02T12:23:22Z</time></trkpt><trkpt lat="44.93040957417057" lon="7.732718504177322"><ele>228.0</ele><time>2026-05-02T12:23:23Z</time></trkpt><trkpt lat="44.9302263527434" lon="7.732850657192644"><ele>228.0</ele><time>2026-05-02T12:23:24Z</time></trkpt><trkpt lat="44.93005575885567" lon="7.7329774412920536"><ele>228.0</ele><time>2026-05-02T12:23:25Z</time></trkpt><trkpt lat="44.9299014145167" lon="7.73309357884203"><ele>228.0</ele><time>2026-05-02T12:23:26Z</time></trkpt><trkpt lat="44.92974565313321" lon="7.733179611690216"><ele>228.0</ele><time>2026-05-02T12:23:27Z</time></trkpt><trkpt lat="44.929605171485385" lon="7.73327861872541"><ele>228.0</ele><time>2026-05-02T12:23:28Z</time></trkpt><trkpt lat="44.929480464176834" lon="7.733364943062393"><ele>228.0</ele><time>2026-05-02T12:23:29Z</time></trkpt><trkpt lat="44.9293666151863" lon="7.733443750973599"><ele>228.0</ele><time>2026-05-02T12:23:30Z</time></trkpt><trkpt lat="44.9292659308084" lon="7.733536048841811"><ele>228.0</ele><time>2026-05-02T12:23:31Z</time></trkpt><trkpt lat="44.92915967684608" lon="7.733586430123931"><ele>227.60000000000002</ele><time>2026-05-02T12:23:32Z</time></trkpt><trkpt lat="44.9290580309112" lon="7.733613016479069"><ele>227.20000000000002</ele><time>2026-05-02T12:23:33Z</time></trkpt><trkpt lat="44.92895924846921" lon="7.733608514796776"><ele>226.8</ele><time>2026-05-02T12:23:34Z</time></trkpt><trkpt lat="44.92886298578516" lon="7.733599786786694"><ele>226.4</ele><time>2026-05-02T12:23:35Z</time></trkpt><trkpt lat="44.92877178815967" lon="7.733649348927198"><ele>226.0</ele><time>2026-05-02T12:23:36Z</time></trkpt><trkpt lat="44.92869139763711" lon="7.733744382964628"><ele>226.0</ele><time>2026-05-02T12:23:37Z</time></trkpt><trkpt lat="44.92860794200707" lon="7.733822277370063"><ele>226.0</ele><time>2026-05-02T12:23:38Z</time></trkpt><trkpt lat="44.9284954586198" lon="7.733832645769845"><ele>226.0</ele><time>2026-05-02T12:23:39Z</time></trkpt><trkpt lat="44.928374018181835" lon="7.733857893411822"><ele>226.0</ele><time>2026-05-02T12:23:40Z</time></trkpt><trkpt lat="44.92824415776182" lon="7.73388029965446"><ele>226.66666666666666</ele><time>2026-05-02T12:23:41Z</time></trkpt><trkpt lat="44.92809987122713" lon="7.733905194994242"><ele>227.33333333333331</ele><time>2026-05-02T12:23:42Z</time></trkpt><trkpt lat="44.927921283516426" lon="7.7339360086978335"><ele>228.0</ele><time>2026-05-02T12:23:43Z</time></trkpt><trkpt lat="44.92772243942199" lon="7.73397031743778"><ele>228.0</ele><time>2026-05-02T12:23:44Z</time></trkpt><trkpt lat="44.92750666338917" lon="7.734007547632773"><ele>228.0</ele><time>2026-05-02T12:23:45Z</time></trkpt><trkpt lat="44.92728933506309" lon="7.734045045669927"><ele>228.0</ele><time>2026-05-02T12:23:46Z</time></trkpt><trkpt lat="44.9270655512438" lon="7.734083274107554"><ele>228.0</ele><time>2026-05-02T12:23:47Z</time></trkpt><trkpt lat="44.92683113053234" lon="7.734123170890867"><ele>228.0</ele><time>2026-05-02T12:23:48Z</time></trkpt><trkpt lat="44.9265913861748" lon="7.7341639736000705"><ele>228.0</ele><time>2026-05-02T12:23:49Z</time></trkpt><trkpt lat="44.92634664003187" lon="7.734202864465405"><ele>228.0</ele><time>2026-05-02T12:23:50Z</time></trkpt><trkpt lat="44.92611118089915" lon="7.734240282714606"><ele>226.5</ele><time>2026-05-02T12:23:51Z</time></trkpt><trkpt lat="44.925886565164305" lon="7.734276063371693"><ele>225.0</ele><time>2026-05-02T12:23:52Z</time></trkpt><trkpt lat="44.92566189222974" lon="7.7343124101857565"><ele>225.0</ele><time>2026-05-02T12:23:53Z</time></trkpt><trkpt lat="44.925443888543214" lon="7.7343476780754505"><ele>225.0</ele><time>2026-05-02T12:23:54Z</time></trkpt><trkpt lat="44.92524769432295" lon="7.734379020301326"><ele>225.0</ele><time>2026-05-02T12:23:55Z</time></trkpt><trkpt lat="44.92505927695432" lon="7.7344090638082585"><ele>225.33333333333331</ele><time>2026-05-02T12:23:56Z</time></trkpt><trkpt lat="44.924864646092395" lon="7.734440098757538"><ele>225.66666666666666</ele><time>2026-05-02T12:23:57Z</time></trkpt><trkpt lat="44.92465859998929" lon="7.734472666314583"><ele>226.0</ele><time>2026-05-02T12:23:58Z</time></trkpt><trkpt lat="44.92443772870072" lon="7.734506866543433"><ele>226.33333333333331</ele><time>2026-05-02T12:23:59Z</time></trkpt><trkpt lat="44.92422917993295" lon="7.734539900320497"><ele>226.66666666666669</ele><time>2026-05-02T12:24:00Z</time></trkpt><trkpt lat="44.92404336111062" lon="7.7345693095732715"><ele>227.0</ele><time>2026-05-02T12:24:01Z</time></trkpt><trkpt lat="44.92387621172036" lon="7.734614518840503"><ele>227.0</ele><time>2026-05-02T12:24:02Z</time></trkpt><trkpt lat="44.92373404783451" lon="7.734628544295049"><ele>227.0</ele><time>2026-05-02T12:24:03Z</time></trkpt><trkpt lat="44.923616683386896" lon="7.734630399787067"><ele>227.0</ele><time>2026-05-02T12:24:04Z</time></trkpt><trkpt lat="44.923520279097666" lon="7.734619031336764"><ele>227.0</ele><time>2026-05-02T12:24:05Z</time></trkpt><trkpt lat="44.923431267175175" lon="7.7345900793432545"><ele>227.0</ele><time>2026-05-02T12:24:06Z</time></trkpt><trkpt lat="44.923341184574525" lon="7.734563115632265"><ele>226.75</ele><time>2026-05-02T12:24:07Z</time></trkpt><trkpt lat="44.923221569339695" lon="7.734549856366235"><ele>226.5</ele><time>2026-05-02T12:24:07.999Z</time></trkpt><trkpt lat="44.9230897226675" lon="7.734648132477873"><ele>226.25</ele><time>2026-05-02T12:24:08.999Z</time></trkpt><trkpt lat="44.922935030974536" lon="7.734736636485943"><ele>226.0</ele><time>2026-05-02T12:24:09.999Z</time></trkpt><trkpt lat="44.922762067531316" lon="7.7348110838809525"><ele>226.0</ele><time>2026-05-02T12:24:10.999Z</time></trkpt><trkpt lat="44.922573478391286" lon="7.734872663184225"><ele>226.0</ele><time>2026-05-02T12:24:11.999Z</time></trkpt><trkpt lat="44.922368601177595" lon="7.734942863617408"><ele>226.0</ele><time>2026-05-02T12:24:12.999Z</time></trkpt><trkpt lat="44.922157949502434" lon="7.735030310971635"><ele>226.0</ele><time>2026-05-02T12:24:13.999Z</time></trkpt><trkpt lat="44.92193898305322" lon="7.735138090865641"><ele>226.0</ele><time>2026-05-02T12:24:14.999Z</time></trkpt><trkpt lat="44.92171378724051" lon="7.735266109444437"><ele>226.0</ele><time>2026-05-02T12:24:15.999Z</time></trkpt><trkpt lat="44.9214844896212" lon="7.735412452284174"><ele>226.0</ele><time>2026-05-02T12:24:16.999Z</time></trkpt><trkpt lat="44.92125185562593" lon="7.735574145072495"><ele>226.0</ele><time>2026-05-02T12:24:17.999Z</time></trkpt><trkpt lat="44.92101850148772" lon="7.735760167742717"><ele>226.0</ele><time>2026-05-02T12:24:18.999Z</time></trkpt><trkpt lat="44.92078646978469" lon="7.735968958157292"><ele>226.5</ele><time>2026-05-02T12:24:19.999Z</time></trkpt><trkpt lat="44.920557267621874" lon="7.736196492839844"><ele>227.0</ele><time>2026-05-02T12:24:20.999Z</time></trkpt><trkpt lat="44.920344389872476" lon="7.736438273737414"><ele>227.0</ele><time>2026-05-02T12:24:21.999Z</time></trkpt><trkpt lat="44.92014465151694" lon="7.7366876074167985"><ele>227.0</ele><time>2026-05-02T12:24:22.999Z</time></trkpt><trkpt lat="44.919964463700616" lon="7.736945755581286"><ele>229.5</ele><time>2026-05-02T12:24:23.999Z</time></trkpt><trkpt lat="44.9197941612926" lon="7.73719197968941"><ele>232.0</ele><time>2026-05-02T12:24:24.999Z</time></trkpt><trkpt lat="44.91964176027352" lon="7.737427241627208"><ele>232.0</ele><time>2026-05-02T12:24:25.999Z</time></trkpt><trkpt lat="44.919492996533705" lon="7.737662569775956"><ele>232.0</ele><time>2026-05-02T12:24:26.999Z</time></trkpt><trkpt lat="44.91934486670644" lon="7.737892857204404"><ele>232.0</ele><time>2026-05-02T12:24:27.999Z</time></trkpt><trkpt lat="44.919202036469144" lon="7.738114411430369"><ele>232.0</ele><time>2026-05-02T12:24:28.999Z</time></trkpt><trkpt lat="44.91905841650223" lon="7.738334709186584"><ele>232.0</ele><time>2026-05-02T12:24:29.999Z</time></trkpt><trkpt lat="44.918915689064875" lon="7.738558718476267"><ele>232.0</ele><time>2026-05-02T12:24:30.999Z</time></trkpt><trkpt lat="44.91877628415568" lon="7.738782246505343"><ele>232.0</ele><time>2026-05-02T12:24:31.999Z</time></trkpt><trkpt lat="44.91863583498327" lon="7.739002798511227"><ele>232.0</ele><time>2026-05-02T12:24:32.999Z</time></trkpt><trkpt lat="44.91849583175805" lon="7.739223542251339"><ele>232.0</ele><time>2026-05-02T12:24:33.999Z</time></trkpt><trkpt lat="44.91835750436159" lon="7.739440765990889"><ele>231.0</ele><time>2026-05-02T12:24:34.999Z</time></trkpt><trkpt lat="44.91822277167306" lon="7.7396569803452335"><ele>230.0</ele><time>2026-05-02T12:24:35.999Z</time></trkpt><trkpt lat="44.91808742118211" lon="7.739866760603807"><ele>229.0</ele><time>2026-05-02T12:24:36.999Z</time></trkpt><trkpt lat="44.917954538548734" lon="7.7400765438720835"><ele>229.66666666666666</ele><time>2026-05-02T12:24:37.999Z</time></trkpt><trkpt lat="44.91782090178121" lon="7.740283159354062"><ele>230.33333333333331</ele><time>2026-05-02T12:24:38.999Z</time></trkpt><trkpt lat="44.91768796325365" lon="7.740485763046675"><ele>231.0</ele><time>2026-05-02T12:24:39.999Z</time></trkpt><trkpt lat="44.91755749812328" lon="7.740685993060374"><ele>231.33333333333331</ele><time>2026-05-02T12:24:41Z</time></trkpt><trkpt lat="44.917429354574125" lon="7.7408851084718915"><ele>231.66666666666666</ele><time>2026-05-02T12:24:42Z</time></trkpt><trkpt lat="44.917301555655406" lon="7.741080267657088"><ele>232.0</ele><time>2026-05-02T12:24:43Z</time></trkpt><trkpt lat="44.917179684623434" lon="7.741266381866216"><ele>232.0</ele><time>2026-05-02T12:24:44Z</time></trkpt><trkpt lat="44.91706764202999" lon="7.741435098496664"><ele>232.0</ele><time>2026-05-02T12:24:44.999Z</time></trkpt><trkpt lat="44.916954435762555" lon="7.74159085120885"><ele>232.0</ele><time>2026-05-02T12:24:45.999Z</time></trkpt><trkpt lat="44.9168444589768" lon="7.741726456509353"><ele>231.66666666666666</ele><time>2026-05-02T12:24:47Z</time></trkpt><trkpt lat="44.91671885142205" lon="7.741856985138052"><ele>231.33333333333331</ele><time>2026-05-02T12:24:48Z</time></trkpt><trkpt lat="44.91661353262837" lon="7.74201517181949"><ele>231.0</ele><time>2026-05-02T12:24:49Z</time></trkpt><trkpt lat="44.916481961390225" lon="7.742159195754363"><ele>231.0</ele><time>2026-05-02T12:24:50Z</time></trkpt><trkpt lat="44.91634266244465" lon="7.74230574282226"><ele>231.0</ele><time>2026-05-02T12:24:51Z</time></trkpt><trkpt lat="44.91619905636683" lon="7.74244682312395"><ele>231.0</ele><time>2026-05-02T12:24:52Z</time></trkpt><trkpt lat="44.9160476668726" lon="7.742585742061228"><ele>231.0</ele><time>2026-05-02T12:24:53Z</time></trkpt><trkpt lat="44.9157474125463" lon="7.742572817770957"><ele>231.0</ele><time>2026-05-02T12:24:54Z</time></trkpt><trkpt lat="44.91560132353575" lon="7.742651154206552"><ele>232.0</ele><time>2026-05-02T12:24:55Z</time></trkpt><trkpt lat="44.91549439703808" lon="7.742818209728762"><ele>233.0</ele><time>2026-05-02T12:24:56Z</time></trkpt><trkpt lat="44.915382610430875" lon="7.742987329221389"><ele>234.0</ele><time>2026-05-02T12:24:57Z</time></trkpt><trkpt lat="44.91520128322813" lon="7.743065411851851"><ele>233.66666666666669</ele><time>2026-05-02T12:24:58Z</time></trkpt><trkpt lat="44.915017793988675" lon="7.743145827913034"><ele>233.33333333333334</ele><time>2026-05-02T12:24:59Z</time></trkpt><trkpt lat="44.91483196671414" lon="7.7432193589124045"><ele>233.0</ele><time>2026-05-02T12:25:00Z</time></trkpt><trkpt lat="44.91465036278289" lon="7.743273838616171"><ele>233.0</ele><time>2026-05-02T12:25:01Z</time></trkpt><trkpt lat="44.91445851935115" lon="7.7433194175748055"><ele>233.0</ele><time>2026-05-02T12:25:02Z</time></trkpt><trkpt lat="44.91425916709229" lon="7.743363858980201"><ele>233.0</ele><time>2026-05-02T12:25:03Z</time></trkpt><trkpt lat="44.9140594732175" lon="7.743398043048475"><ele>233.33333333333334</ele><time>2026-05-02T12:25:04Z</time></trkpt><trkpt lat="44.91385643063137" lon="7.743415456643157"><ele>233.66666666666669</ele><time>2026-05-02T12:25:05Z</time></trkpt><trkpt lat="44.91365291039306" lon="7.743416786837045"><ele>234.0</ele><time>2026-05-02T12:25:06Z</time></trkpt><trkpt lat="44.91344223673354" lon="7.743402584459841"><ele>233.66666666666669</ele><time>2026-05-02T12:25:07Z</time></trkpt><trkpt lat="44.91322617276083" lon="7.743377632537189"><ele>233.33333333333334</ele><time>2026-05-02T12:25:08Z</time></trkpt><trkpt lat="44.9130064550901" lon="7.743340726837279"><ele>233.0</ele><time>2026-05-02T12:25:09Z</time></trkpt><trkpt lat="44.91278573493403" lon="7.743313063145385"><ele>233.5</ele><time>2026-05-02T12:25:10Z</time></trkpt><trkpt lat="44.91256475152955" lon="7.743282809181111"><ele>234.0</ele><time>2026-05-02T12:25:11Z</time></trkpt><trkpt lat="44.912326807354944" lon="7.743246657119187"><ele>234.0</ele><time>2026-05-02T12:25:12Z</time></trkpt><trkpt lat="44.91208951931926" lon="7.743213708092089"><ele>234.0</ele><time>2026-05-02T12:25:13Z</time></trkpt><trkpt lat="44.911847177690014" lon="7.743175876315668"><ele>233.0</ele><time>2026-05-02T12:25:14Z</time></trkpt><trkpt lat="44.91160755669698" lon="7.743144879908761"><ele>232.0</ele><time>2026-05-02T12:25:15Z</time></trkpt><trkpt lat="44.91136396556791" lon="7.743112322722294"><ele>232.0</ele><time>2026-05-02T12:25:16Z</time></trkpt><trkpt lat="44.91112121909594" lon="7.743081065093869"><ele>232.0</ele><time>2026-05-02T12:25:17Z</time></trkpt><trkpt lat="44.91087382652693" lon="7.743049748150969"><ele>232.5</ele><time>2026-05-02T12:25:18Z</time></trkpt><trkpt lat="44.91063433009881" lon="7.743012077823162"><ele>233.0</ele><time>2026-05-02T12:25:19Z</time></trkpt><trkpt lat="44.91039046561983" lon="7.7429856349770905"><ele>233.0</ele><time>2026-05-02T12:25:20Z</time></trkpt><trkpt lat="44.9101464624045" lon="7.742968139691961"><ele>233.0</ele><time>2026-05-02T12:25:21Z</time></trkpt><trkpt lat="44.90990713389113" lon="7.742934089613792"><ele>233.5</ele><time>2026-05-02T12:25:22Z</time></trkpt><trkpt lat="44.90966520623226" lon="7.742898985657033"><ele>234.0</ele><time>2026-05-02T12:25:23Z</time></trkpt><trkpt lat="44.909414801904084" lon="7.742860525776181"><ele>234.0</ele><time>2026-05-02T12:25:24Z</time></trkpt><trkpt lat="44.90916093227477" lon="7.742828073705334"><ele>234.0</ele><time>2026-05-02T12:25:25Z</time></trkpt><trkpt lat="44.90890455010066" lon="7.74278672842978"><ele>234.0</ele><time>2026-05-02T12:25:26Z</time></trkpt><trkpt lat="44.9086531493586" lon="7.74274696018505"><ele>234.0</ele><time>2026-05-02T12:25:27Z</time></trkpt><trkpt lat="44.90840322196138" lon="7.742727350821906"><ele>233.0</ele><time>2026-05-02T12:25:28Z</time></trkpt><trkpt lat="44.90814729571155" lon="7.742681732874725"><ele>232.0</ele><time>2026-05-02T12:25:29Z</time></trkpt><trkpt lat="44.907891730400074" lon="7.742646996377715"><ele>232.0</ele><time>2026-05-02T12:25:30Z</time></trkpt><trkpt lat="44.907633185976955" lon="7.74261550641021"><ele>232.0</ele><time>2026-05-02T12:25:31Z</time></trkpt><trkpt lat="44.90737602484057" lon="7.742580844809307"><ele>233.0</ele><time>2026-05-02T12:25:32Z</time></trkpt><trkpt lat="44.90712300989102" lon="7.74254364829667"><ele>234.0</ele><time>2026-05-02T12:25:33Z</time></trkpt><trkpt lat="44.90686900170003" lon="7.7425078792044175"><ele>235.0</ele><time>2026-05-02T12:25:34Z</time></trkpt><trkpt lat="44.90661141163171" lon="7.742469868294485"><ele>236.0</ele><time>2026-05-02T12:25:35Z</time></trkpt><trkpt lat="44.90635121113726" lon="7.742430950935729"><ele>236.0</ele><time>2026-05-02T12:25:36Z</time></trkpt><trkpt lat="44.90610928031508" lon="7.7424217326358535"><ele>236.0</ele><time>2026-05-02T12:25:37Z</time></trkpt><trkpt lat="44.90586115752139" lon="7.742397795653017"><ele>235.5</ele><time>2026-05-02T12:25:38Z</time></trkpt><trkpt lat="44.90558870024075" lon="7.742343620484987"><ele>235.0</ele><time>2026-05-02T12:25:39Z</time></trkpt><trkpt lat="44.905325362843406" lon="7.74230477407451"><ele>234.5</ele><time>2026-05-02T12:25:40Z</time></trkpt><trkpt lat="44.90505531900723" lon="7.74226799860209"><ele>234.0</ele><time>2026-05-02T12:25:41Z</time></trkpt><trkpt lat="44.9047845327095" lon="7.7422316030103575"><ele>234.0</ele><time>2026-05-02T12:25:42Z</time></trkpt><trkpt lat="44.90451121115216" lon="7.742194335807738"><ele>234.0</ele><time>2026-05-02T12:25:43Z</time></trkpt><trkpt lat="44.90423563274892" lon="7.742158507243796"><ele>234.0</ele><time>2026-05-02T12:25:44Z</time></trkpt><trkpt lat="44.90395757456109" lon="7.74211895258548"><ele>234.0</ele><time>2026-05-02T12:25:45Z</time></trkpt><trkpt lat="44.90367949115267" lon="7.742079673157141"><ele>235.0</ele><time>2026-05-02T12:25:46Z</time></trkpt><trkpt lat="44.90339762323337" lon="7.742043694528168"><ele>236.0</ele><time>2026-05-02T12:25:47Z</time></trkpt><trkpt lat="44.90311898981245" lon="7.742003721477515"><ele>236.0</ele><time>2026-05-02T12:25:48Z</time></trkpt><trkpt lat="44.90284270101498" lon="7.7419673955569746"><ele>236.0</ele><time>2026-05-02T12:25:49Z</time></trkpt><trkpt lat="44.90256716301934" lon="7.741930635408614"><ele>235.5</ele><time>2026-05-02T12:25:50Z</time></trkpt><trkpt lat="44.902292276966215" lon="7.741889946560058"><ele>235.0</ele><time>2026-05-02T12:25:51Z</time></trkpt><trkpt lat="44.9020163242578" lon="7.741847160531193"><ele>235.0</ele><time>2026-05-02T12:25:52Z</time></trkpt><trkpt lat="44.901747923778444" lon="7.741811036726046"><ele>235.0</ele><time>2026-05-02T12:25:53Z</time></trkpt><trkpt lat="44.901480028421446" lon="7.741772512859172"><ele>235.0</ele><time>2026-05-02T12:25:54Z</time></trkpt><trkpt lat="44.90121292921661" lon="7.74173470849125"><ele>235.0</ele><time>2026-05-02T12:25:55Z</time></trkpt><trkpt lat="44.90095182433654" lon="7.74169735708743"><ele>235.0</ele><time>2026-05-02T12:25:56Z</time></trkpt><trkpt lat="44.900706120464136" lon="7.7416567949224735"><ele>235.0</ele><time>2026-05-02T12:25:57Z</time></trkpt><trkpt lat="44.900459600263424" lon="7.741609248545159"><ele>235.0</ele><time>2026-05-02T12:25:58Z</time></trkpt><trkpt lat="44.90020832245305" lon="7.741550461795159"><ele>235.0</ele><time>2026-05-02T12:25:59Z</time></trkpt><trkpt lat="44.89995619836764" lon="7.741480004268404"><ele>235.0</ele><time>2026-05-02T12:26:00Z</time></trkpt><trkpt lat="44.89970954899112" lon="7.741375264634252"><ele>235.0</ele><time>2026-05-02T12:26:01Z</time></trkpt><trkpt lat="44.8994588705923" lon="7.7412828539854415"><ele>235.0</ele><time>2026-05-02T12:26:02Z</time></trkpt><trkpt lat="44.89920984890975" lon="7.741178395383364"><ele>235.0</ele><time>2026-05-02T12:26:03Z</time></trkpt><trkpt lat="44.89895807841069" lon="7.741069077112718"><ele>234.5</ele><time>2026-05-02T12:26:04Z</time></trkpt><trkpt lat="44.89871198738827" lon="7.7409469008745315"><ele>234.0</ele><time>2026-05-02T12:26:05Z</time></trkpt><trkpt lat="44.898458779652834" lon="7.740805753340308"><ele>234.5</ele><time>2026-05-02T12:26:06Z</time></trkpt><trkpt lat="44.89821022053387" lon="7.740660009581574"><ele>235.0</ele><time>2026-05-02T12:26:07Z</time></trkpt><trkpt lat="44.897959462922145" lon="7.740510716340474"><ele>235.0</ele><time>2026-05-02T12:26:08Z</time></trkpt><trkpt lat="44.89772170924847" lon="7.740368176004291"><ele>235.0</ele><time>2026-05-02T12:26:09Z</time></trkpt><trkpt lat="44.897496685919116" lon="7.740232919716853"><ele>235.5</ele><time>2026-05-02T12:26:10Z</time></trkpt><trkpt lat="44.897282154672745" lon="7.740104067416376"><ele>236.0</ele><time>2026-05-02T12:26:11Z</time></trkpt><trkpt lat="44.89707729553118" lon="7.739981469444897"><ele>236.0</ele><time>2026-05-02T12:26:12Z</time></trkpt><trkpt lat="44.89686768330559" lon="7.739858854755344"><ele>236.0</ele><time>2026-05-02T12:26:13Z</time></trkpt><trkpt lat="44.89664788197355" lon="7.739729846489883"><ele>236.0</ele><time>2026-05-02T12:26:14Z</time></trkpt><trkpt lat="44.89642643338981" lon="7.739599871507654"><ele>236.0</ele><time>2026-05-02T12:26:14.999Z</time></trkpt><trkpt lat="44.89620027079149" lon="7.739467129762805"><ele>236.0</ele><time>2026-05-02T12:26:15.999Z</time></trkpt><trkpt lat="44.89596745963102" lon="7.739330485627402"><ele>236.0</ele><time>2026-05-02T12:26:16.999Z</time></trkpt><trkpt lat="44.895736238493804" lon="7.739194663014581"><ele>236.0</ele><time>2026-05-02T12:26:17.999Z</time></trkpt><trkpt lat="44.895500969402825" lon="7.739055652607533"><ele>236.0</ele><time>2026-05-02T12:26:18.999Z</time></trkpt><trkpt lat="44.89526329713966" lon="7.7389152222325945"><ele>235.5</ele><time>2026-05-02T12:26:19.999Z</time></trkpt><trkpt lat="44.895025053076" lon="7.738774454033918"><ele>235.0</ele><time>2026-05-02T12:26:20.999Z</time></trkpt><trkpt lat="44.894783705935325" lon="7.738631884726931"><ele>236.0</ele><time>2026-05-02T12:26:21.999Z</time></trkpt><trkpt lat="44.894544459355764" lon="7.73849094232656"><ele>237.0</ele><time>2026-05-02T12:26:22.999Z</time></trkpt><trkpt lat="44.89430763835041" lon="7.738351428844109"><ele>237.5</ele><time>2026-05-02T12:26:23.999Z</time></trkpt><trkpt lat="44.894072153684235" lon="7.7382127026000616"><ele>238.0</ele><time>2026-05-02T12:26:24.999Z</time></trkpt><trkpt lat="44.89383680806092" lon="7.738074057357491"><ele>238.0</ele><time>2026-05-02T12:26:25.999Z</time></trkpt><trkpt lat="44.89359438859297" lon="7.737930644352059"><ele>238.0</ele><time>2026-05-02T12:26:26.999Z</time></trkpt><trkpt lat="44.89334892590836" lon="7.737784966664143"><ele>238.0</ele><time>2026-05-02T12:26:27.999Z</time></trkpt><trkpt lat="44.89310170984803" lon="7.737637603934288"><ele>238.0</ele><time>2026-05-02T12:26:28.999Z</time></trkpt><trkpt lat="44.89285176468878" lon="7.7374886144146835"><ele>238.0</ele><time>2026-05-02T12:26:29.999Z</time></trkpt><trkpt lat="44.89259222736" lon="7.737333907039318"><ele>238.0</ele><time>2026-05-02T12:26:30.999Z</time></trkpt><trkpt lat="44.892332905019245" lon="7.737179327905081"><ele>237.5</ele><time>2026-05-02T12:26:31.999Z</time></trkpt><trkpt lat="44.89207334182956" lon="7.737026956174661"><ele>237.0</ele><time>2026-05-02T12:26:32.999Z</time></trkpt><trkpt lat="44.89181025315754" lon="7.736894355775067"><ele>238.5</ele><time>2026-05-02T12:26:33.999Z</time></trkpt><trkpt lat="44.891554599415784" lon="7.736730253930601"><ele>240.0</ele><time>2026-05-02T12:26:34.999Z</time></trkpt><trkpt lat="44.89129811798687" lon="7.736571595384122"><ele>240.0</ele><time>2026-05-02T12:26:35.999Z</time></trkpt><trkpt lat="44.89103926963081" lon="7.736420620018829"><ele>240.0</ele><time>2026-05-02T12:26:36.999Z</time></trkpt><trkpt lat="44.89077975489827" lon="7.736275024795039"><ele>239.5</ele><time>2026-05-02T12:26:37.999Z</time></trkpt><trkpt lat="44.890519116159815" lon="7.736127278539323"><ele>239.0</ele><time>2026-05-02T12:26:38.999Z</time></trkpt><trkpt lat="44.89025844890473" lon="7.73597516165449"><ele>238.5</ele><time>2026-05-02T12:26:39.999Z</time></trkpt><trkpt lat="44.88999963425653" lon="7.735824460305737"><ele>238.0</ele><time>2026-05-02T12:26:40.999Z</time></trkpt><trkpt lat="44.889741512323525" lon="7.73567112361882"><ele>238.0</ele><time>2026-05-02T12:26:41.999Z</time></trkpt><trkpt lat="44.88948410773439" lon="7.73551639231404"><ele>238.0</ele><time>2026-05-02T12:26:42.999Z</time></trkpt><trkpt lat="44.88922643805648" lon="7.735362685524165"><ele>238.0</ele><time>2026-05-02T12:26:43.999Z</time></trkpt><trkpt lat="44.88896839724309" lon="7.7352090959151605"><ele>238.0</ele><time>2026-05-02T12:26:44.999Z</time></trkpt><trkpt lat="44.888711114539056" lon="7.735056326397167"><ele>238.0</ele><time>2026-05-02T12:26:45.999Z</time></trkpt><trkpt lat="44.888458338868936" lon="7.734902947200201"><ele>238.0</ele><time>2026-05-02T12:26:47Z</time></trkpt><trkpt lat="44.88820170780738" lon="7.7347578876243555"><ele>237.5</ele><time>2026-05-02T12:26:48Z</time></trkpt><trkpt lat="44.887947012230164" lon="7.734623822710055"><ele>237.0</ele><time>2026-05-02T12:26:49Z</time></trkpt><trkpt lat="44.88769020378302" lon="7.734512694465596"><ele>236.5</ele><time>2026-05-02T12:26:50Z</time></trkpt><trkpt lat="44.88743487540435" lon="7.734420202126945"><ele>236.0</ele><time>2026-05-02T12:26:51Z</time></trkpt><trkpt lat="44.88718854491724" lon="7.734301645142612"><ele>235.5</ele><time>2026-05-02T12:26:52Z</time></trkpt><trkpt lat="44.88693706111283" lon="7.73420606673848"><ele>235.0</ele><time>2026-05-02T12:26:53Z</time></trkpt><trkpt lat="44.88668581705223" lon="7.734115528782673"><ele>234.5</ele><time>2026-05-02T12:26:54Z</time></trkpt><trkpt lat="44.88639852943774" lon="7.734183728483502"><ele>234.0</ele><time>2026-05-02T12:26:55Z</time></trkpt><trkpt lat="44.886132256209336" lon="7.734150725122019"><ele>235.0</ele><time>2026-05-02T12:26:56Z</time></trkpt><trkpt lat="44.885866208656026" lon="7.7341317940583165"><ele>236.0</ele><time>2026-05-02T12:26:57Z</time></trkpt><trkpt lat="44.885598580587484" lon="7.734136510107083"><ele>236.0</ele><time>2026-05-02T12:26:58Z</time></trkpt><trkpt lat="44.88532943014311" lon="7.734153465112012"><ele>236.0</ele><time>2026-05-02T12:26:59Z</time></trkpt><trkpt lat="44.88505983210227" lon="7.73418254458964"><ele>236.0</ele><time>2026-05-02T12:27:00Z</time></trkpt><trkpt lat="44.88478821225292" lon="7.734209995606209"><ele>236.0</ele><time>2026-05-02T12:27:01Z</time></trkpt><trkpt lat="44.88451287570937" lon="7.734241899586238"><ele>236.5</ele><time>2026-05-02T12:27:02Z</time></trkpt><trkpt lat="44.88423423200406" lon="7.734271983742112"><ele>237.0</ele><time>2026-05-02T12:27:03Z</time></trkpt><trkpt lat="44.88395494819513" lon="7.734303096242895"><ele>237.0</ele><time>2026-05-02T12:27:04Z</time></trkpt><trkpt lat="44.8836740818319" lon="7.734333497426644"><ele>237.0</ele><time>2026-05-02T12:27:05Z</time></trkpt><trkpt lat="44.88339551627235" lon="7.734362817342848"><ele>237.0</ele><time>2026-05-02T12:27:06Z</time></trkpt><trkpt lat="44.88311890343048" lon="7.734391626998337"><ele>237.0</ele><time>2026-05-02T12:27:07Z</time></trkpt><trkpt lat="44.88284159582556" lon="7.734418637196543"><ele>236.0</ele><time>2026-05-02T12:27:08Z</time></trkpt><trkpt lat="44.882566918781016" lon="7.734448589404101"><ele>235.0</ele><time>2026-05-02T12:27:09Z</time></trkpt><trkpt lat="44.88229437994113" lon="7.734477224117773"><ele>235.0</ele><time>2026-05-02T12:27:10Z</time></trkpt><trkpt lat="44.882020243533844" lon="7.734508148053555"><ele>235.0</ele><time>2026-05-02T12:27:11Z</time></trkpt><trkpt lat="44.881745783059664" lon="7.734538388957805"><ele>235.0</ele><time>2026-05-02T12:27:12Z</time></trkpt><trkpt lat="44.88147351642891" lon="7.734569192013926"><ele>235.0</ele><time>2026-05-02T12:27:13Z</time></trkpt><trkpt lat="44.881202529964185" lon="7.7345969552100655"><ele>235.0</ele><time>2026-05-02T12:27:14Z</time></trkpt><trkpt lat="44.88093508646787" lon="7.734623293200124"><ele>235.0</ele><time>2026-05-02T12:27:15Z</time></trkpt><trkpt lat="44.88068869342315" lon="7.7346528415026725"><ele>235.5</ele><time>2026-05-02T12:27:16Z</time></trkpt><trkpt lat="44.88045343446572" lon="7.734683001796281"><ele>236.0</ele><time>2026-05-02T12:27:17Z</time></trkpt><trkpt lat="44.8802175079596" lon="7.734706446733089"><ele>235.66666666666669</ele><time>2026-05-02T12:27:18Z</time></trkpt><trkpt lat="44.879993410745364" lon="7.734730909150392"><ele>235.33333333333331</ele><time>2026-05-02T12:27:19Z</time></trkpt><trkpt lat="44.87979227455483" lon="7.7347503350187194"><ele>235.0</ele><time>2026-05-02T12:27:20Z</time></trkpt><trkpt lat="44.87960894878147" lon="7.734772273109248"><ele>235.0</ele><time>2026-05-02T12:27:21Z</time></trkpt><trkpt lat="44.87946906522502" lon="7.734787307815381"><ele>235.0</ele><time>2026-05-02T12:27:22Z</time></trkpt><trkpt lat="44.8793431098044" lon="7.734800700030668"><ele>235.0</ele><time>2026-05-02T12:27:23Z</time></trkpt><trkpt lat="44.87923107392872" lon="7.734813936846265"><ele>235.0</ele><time>2026-05-02T12:27:24Z</time></trkpt><trkpt lat="44.87912867514625" lon="7.734820440799366"><ele>235.0</ele><time>2026-05-02T12:27:25Z</time></trkpt><trkpt lat="44.879047686633896" lon="7.734859219946622"><ele>235.0</ele><time>2026-05-02T12:27:26Z</time></trkpt><trkpt lat="44.878995348918956" lon="7.734945681862091"><ele>235.0</ele><time>2026-05-02T12:27:27Z</time></trkpt><trkpt lat="44.878962676335114" lon="7.735082636097242"><ele>235.0</ele><time>2026-05-02T12:27:28Z</time></trkpt><trkpt lat="44.87895204709923" lon="7.735256864629091"><ele>235.0</ele><time>2026-05-02T12:27:29Z</time></trkpt><trkpt lat="44.878937782394715" lon="7.735465878806141"><ele>235.0</ele><time>2026-05-02T12:27:30Z</time></trkpt><trkpt lat="44.87890488401974" lon="7.7357037699211695"><ele>235.0</ele><time>2026-05-02T12:27:31Z</time></trkpt><trkpt lat="44.87887385603781" lon="7.735964742472897"><ele>235.0</ele><time>2026-05-02T12:27:32Z</time></trkpt><trkpt lat="44.87884709082775" lon="7.736229763464481"><ele>235.0</ele><time>2026-05-02T12:27:33Z</time></trkpt><trkpt lat="44.87881717519884" lon="7.736514777627916"><ele>235.0</ele><time>2026-05-02T12:27:34Z</time></trkpt><trkpt lat="44.878784885210294" lon="7.73681399487552"><ele>235.0</ele><time>2026-05-02T12:27:35Z</time></trkpt><trkpt lat="44.87875069696918" lon="7.737118411797959"><ele>235.0</ele><time>2026-05-02T12:27:36Z</time></trkpt><trkpt lat="44.878716188690596" lon="7.737416817599107"><ele>235.0</ele><time>2026-05-02T12:27:37Z</time></trkpt><trkpt lat="44.87868458996803" lon="7.73769599065483"><ele>235.0</ele><time>2026-05-02T12:27:38Z</time></trkpt><trkpt lat="44.87865319311293" lon="7.737955789398252"><ele>235.0</ele><time>2026-05-02T12:27:39Z</time></trkpt><trkpt lat="44.87862166218506" lon="7.738182407372151"><ele>235.0</ele><time>2026-05-02T12:27:40Z</time></trkpt><trkpt lat="44.87859537361764" lon="7.738398376539995"><ele>235.0</ele><time>2026-05-02T12:27:41Z</time></trkpt><trkpt lat="44.87856970603048" lon="7.738628218454708"><ele>235.0</ele><time>2026-05-02T12:27:42Z</time></trkpt><trkpt lat="44.87853882338875" lon="7.738890110106786"><ele>235.0</ele><time>2026-05-02T12:27:43Z</time></trkpt><trkpt lat="44.87850686210635" lon="7.739177319017867"><ele>235.0</ele><time>2026-05-02T12:27:44Z</time></trkpt><trkpt lat="44.878470272117106" lon="7.739481327913183"><ele>236.0</ele><time>2026-05-02T12:27:45Z</time></trkpt><trkpt lat="44.8784364681314" lon="7.739754497571951"><ele>237.0</ele><time>2026-05-02T12:27:46Z</time></trkpt><trkpt lat="44.878408994208634" lon="7.739982286947351"><ele>238.0</ele><time>2026-05-02T12:27:47Z</time></trkpt><trkpt lat="44.87838488051451" lon="7.740189887487116"><ele>237.66666666666666</ele><time>2026-05-02T12:27:48Z</time></trkpt><trkpt lat="44.878358917126256" lon="7.740401807643028"><ele>237.33333333333331</ele><time>2026-05-02T12:27:49Z</time></trkpt><trkpt lat="44.87833135552035" lon="7.740627731855858"><ele>237.0</ele><time>2026-05-02T12:27:50Z</time></trkpt><trkpt lat="44.8782980884876" lon="7.740877803034138"><ele>236.33333333333331</ele><time>2026-05-02T12:27:51Z</time></trkpt><trkpt lat="44.878263942867" lon="7.741158827197702"><ele>235.66666666666666</ele><time>2026-05-02T12:27:52Z</time></trkpt><trkpt lat="44.87823243797453" lon="7.741457360345171"><ele>235.0</ele><time>2026-05-02T12:27:53Z</time></trkpt><trkpt lat="44.87819837724917" lon="7.741767954920017"><ele>235.5</ele><time>2026-05-02T12:27:54Z</time></trkpt><trkpt lat="44.87816204528941" lon="7.742091274776308"><ele>236.0</ele><time>2026-05-02T12:27:55Z</time></trkpt><trkpt lat="44.87812577014735" lon="7.742421431271519"><ele>236.66666666666669</ele><time>2026-05-02T12:27:56Z</time></trkpt><trkpt lat="44.8780904129488" lon="7.742747162045439"><ele>237.33333333333331</ele><time>2026-05-02T12:27:57Z</time></trkpt><trkpt lat="44.87805600667153" lon="7.743044413158486"><ele>238.0</ele><time>2026-05-02T12:27:58Z</time></trkpt><trkpt lat="44.878028407052014" lon="7.743311304721893"><ele>237.66666666666666</ele><time>2026-05-02T12:27:59Z</time></trkpt><trkpt lat="44.877999171366874" lon="7.743565166078351"><ele>237.33333333333331</ele><time>2026-05-02T12:28:00Z</time></trkpt><trkpt lat="44.87797214990075" lon="7.743806967921866"><ele>237.0</ele><time>2026-05-02T12:28:01Z</time></trkpt><trkpt lat="44.87794580004983" lon="7.7440347654171235"><ele>237.0</ele><time>2026-05-02T12:28:02Z</time></trkpt><trkpt lat="44.87791965169774" lon="7.744265388692069"><ele>237.0</ele><time>2026-05-02T12:28:03Z</time></trkpt><trkpt lat="44.87789047968034" lon="7.744501090342476"><ele>237.0</ele><time>2026-05-02T12:28:04Z</time></trkpt><trkpt lat="44.87786183609481" lon="7.744747938443197"><ele>237.0</ele><time>2026-05-02T12:28:05Z</time></trkpt><trkpt lat="44.8778345965589" lon="7.745009857712535"><ele>237.0</ele><time>2026-05-02T12:28:06Z</time></trkpt><trkpt lat="44.877802710546504" lon="7.745275642409489"><ele>237.0</ele><time>2026-05-02T12:28:07Z</time></trkpt><trkpt lat="44.87776622090731" lon="7.745548202946566"><ele>237.0</ele><time>2026-05-02T12:28:08Z</time></trkpt><trkpt lat="44.87773065989124" lon="7.7458227122976515"><ele>237.0</ele><time>2026-05-02T12:28:09Z</time></trkpt><trkpt lat="44.877700319813094" lon="7.746079685624463"><ele>237.0</ele><time>2026-05-02T12:28:10Z</time></trkpt><trkpt lat="44.87767373236894" lon="7.746309199431064"><ele>237.0</ele><time>2026-05-02T12:28:11Z</time></trkpt><trkpt lat="44.87764799899608" lon="7.746527644034688"><ele>237.0</ele><time>2026-05-02T12:28:12Z</time></trkpt><trkpt lat="44.877621533695454" lon="7.746753812805201"><ele>237.0</ele><time>2026-05-02T12:28:13Z</time></trkpt><trkpt lat="44.87759701994107" lon="7.746986081025777"><ele>237.33333333333331</ele><time>2026-05-02T12:28:14Z</time></trkpt><trkpt lat="44.87755579282008" lon="7.747206695071971"><ele>237.66666666666666</ele><time>2026-05-02T12:28:15Z</time></trkpt><trkpt lat="44.87752992047579" lon="7.747428324422674"><ele>238.0</ele><time>2026-05-02T12:28:16Z</time></trkpt><trkpt lat="44.877503473935576" lon="7.747659286484844"><ele>237.66666666666666</ele><time>2026-05-02T12:28:17Z</time></trkpt><trkpt lat="44.87747647153176" lon="7.747895966410376"><ele>237.33333333333331</ele><time>2026-05-02T12:28:18Z</time></trkpt><trkpt lat="44.877449566549664" lon="7.748131792426454"><ele>237.0</ele><time>2026-05-02T12:28:19Z</time></trkpt><trkpt lat="44.87742238276885" lon="7.748371689344308"><ele>236.66666666666669</ele><time>2026-05-02T12:28:20Z</time></trkpt><trkpt lat="44.87739548453932" lon="7.7486122256838135"><ele>236.33333333333334</ele><time>2026-05-02T12:28:21Z</time></trkpt><trkpt lat="44.87736819660463" lon="7.74885624694177"><ele>236.0</ele><time>2026-05-02T12:28:22Z</time></trkpt><trkpt lat="44.877357079367435" lon="7.749104649056866"><ele>236.0</ele><time>2026-05-02T12:28:23Z</time></trkpt><trkpt lat="44.877327922285446" lon="7.749348323564021"><ele>236.0</ele><time>2026-05-02T12:28:24Z</time></trkpt><trkpt lat="44.87728062279064" lon="7.749596851284198"><ele>236.0</ele><time>2026-05-02T12:28:25Z</time></trkpt><trkpt lat="44.87725159507431" lon="7.749846544136727"><ele>236.0</ele><time>2026-05-02T12:28:26Z</time></trkpt><trkpt lat="44.87723894810384" lon="7.750099087667497"><ele>236.0</ele><time>2026-05-02T12:28:27Z</time></trkpt><trkpt lat="44.8772107868976" lon="7.7503402160089125"><ele>236.0</ele><time>2026-05-02T12:28:28Z</time></trkpt><trkpt lat="44.8771676086578" lon="7.750574373433747"><ele>236.33333333333334</ele><time>2026-05-02T12:28:29Z</time></trkpt><trkpt lat="44.87713897597818" lon="7.750818714544655"><ele>236.66666666666669</ele><time>2026-05-02T12:28:30Z</time></trkpt><trkpt lat="44.87711059788145" lon="7.7510608831313945"><ele>237.0</ele><time>2026-05-02T12:28:31Z</time></trkpt><trkpt lat="44.87708250415858" lon="7.751300624971433"><ele>237.33333333333331</ele><time>2026-05-02T12:28:32Z</time></trkpt><trkpt lat="44.87705420112782" lon="7.75154215296792"><ele>237.66666666666666</ele><time>2026-05-02T12:28:33Z</time></trkpt><trkpt lat="44.87702448679323" lon="7.751787903959429"><ele>238.0</ele><time>2026-05-02T12:28:34Z</time></trkpt><trkpt lat="44.876993952189615" lon="7.752036711047163"><ele>238.33333333333331</ele><time>2026-05-02T12:28:35Z</time></trkpt><trkpt lat="44.87696370669107" lon="7.752283162396979"><ele>238.66666666666669</ele><time>2026-05-02T12:28:36Z</time></trkpt><trkpt lat="44.87693403041074" lon="7.752543110999333"><ele>239.0</ele><time>2026-05-02T12:28:37Z</time></trkpt><trkpt lat="44.87691974208857" lon="7.752816152044563"><ele>239.0</ele><time>2026-05-02T12:28:38Z</time></trkpt><trkpt lat="44.87687271006687" lon="7.753086995793668"><ele>239.0</ele><time>2026-05-02T12:28:39Z</time></trkpt><trkpt lat="44.87684071724494" lon="7.753360883629162"><ele>239.0</ele><time>2026-05-02T12:28:40Z</time></trkpt><trkpt lat="44.876808364608706" lon="7.753637548274277"><ele>239.0</ele><time>2026-05-02T12:28:41Z</time></trkpt><trkpt lat="44.876789634904235" lon="7.753920776566119"><ele>239.0</ele><time>2026-05-02T12:28:42Z</time></trkpt><trkpt lat="44.87675447511889" lon="7.754207429364343"><ele>239.0</ele><time>2026-05-02T12:28:43Z</time></trkpt><trkpt lat="44.87671951376239" lon="7.754500917124736"><ele>239.0</ele><time>2026-05-02T12:28:44Z</time></trkpt><trkpt lat="44.8766848583651" lon="7.754801159013036"><ele>239.0</ele><time>2026-05-02T12:28:45Z</time></trkpt><trkpt lat="44.876649420068" lon="7.7551069013850835"><ele>239.0</ele><time>2026-05-02T12:28:46Z</time></trkpt><trkpt lat="44.87659835014742" lon="7.755411261688029"><ele>238.66666666666669</ele><time>2026-05-02T12:28:47Z</time></trkpt><trkpt lat="44.87656154015751" lon="7.755707977170718"><ele>238.33333333333331</ele><time>2026-05-02T12:28:48Z</time></trkpt><trkpt lat="44.87652789648335" lon="7.75600159469268"><ele>238.0</ele><time>2026-05-02T12:28:49Z</time></trkpt><trkpt lat="44.87649509913337" lon="7.756287826105228"><ele>238.0</ele><time>2026-05-02T12:28:50Z</time></trkpt><trkpt lat="44.8764633388468" lon="7.756567031653854"><ele>238.0</ele><time>2026-05-02T12:28:51Z</time></trkpt><trkpt lat="44.876446809092826" lon="7.756847827054392"><ele>238.0</ele><time>2026-05-02T12:28:52Z</time></trkpt><trkpt lat="44.87641770873019" lon="7.757126789841297"><ele>238.0</ele><time>2026-05-02T12:28:53Z</time></trkpt><trkpt lat="44.87638515038897" lon="7.757415866419382"><ele>238.0</ele><time>2026-05-02T12:28:54Z</time></trkpt><trkpt lat="44.876352935534975" lon="7.757706266891731"><ele>238.0</ele><time>2026-05-02T12:28:55Z</time></trkpt><trkpt lat="44.87630386458502" lon="7.758002052890139"><ele>238.33333333333331</ele><time>2026-05-02T12:28:56Z</time></trkpt><trkpt lat="44.87626896798505" lon="7.758301166606618"><ele>238.66666666666669</ele><time>2026-05-02T12:28:57Z</time></trkpt><trkpt lat="44.87625227352837" lon="7.7585930499028795"><ele>239.0</ele><time>2026-05-02T12:28:58Z</time></trkpt><trkpt lat="44.87621715718225" lon="7.758872881030454"><ele>238.66666666666669</ele><time>2026-05-02T12:28:59Z</time></trkpt><trkpt lat="44.87618289796748" lon="7.759167429863792"><ele>238.33333333333331</ele><time>2026-05-02T12:29:00Z</time></trkpt><trkpt lat="44.876146936189926" lon="7.759476093224614"><ele>238.0</ele><time>2026-05-02T12:29:01Z</time></trkpt><trkpt lat="44.876114595645106" lon="7.7597769917428145"><ele>238.0</ele><time>2026-05-02T12:29:02Z</time></trkpt><trkpt lat="44.876074507646656" lon="7.760081157359686"><ele>238.0</ele><time>2026-05-02T12:29:03Z</time></trkpt><trkpt lat="44.876027415743906" lon="7.760372276095855"><ele>238.0</ele><time>2026-05-02T12:29:04Z</time></trkpt><trkpt lat="44.87600618435171" lon="7.760691948214797"><ele>237.66666666666666</ele><time>2026-05-02T12:29:05Z</time></trkpt><trkpt lat="44.875968141002325" lon="7.761003849089126"><ele>237.33333333333331</ele><time>2026-05-02T12:29:06Z</time></trkpt><trkpt lat="44.87593511281608" lon="7.761291862659304"><ele>237.0</ele><time>2026-05-02T12:29:07Z</time></trkpt><trkpt lat="44.875902074790794" lon="7.76156206251265"><ele>237.66666666666669</ele><time>2026-05-02T12:29:08Z</time></trkpt><trkpt lat="44.87587431670813" lon="7.761809714357167"><ele>238.33333333333334</ele><time>2026-05-02T12:29:09Z</time></trkpt><trkpt lat="44.87584622779943" lon="7.762040175462267"><ele>239.0</ele><time>2026-05-02T12:29:10Z</time></trkpt><trkpt lat="44.87582264939045" lon="7.762244408330345"><ele>239.0</ele><time>2026-05-02T12:29:11Z</time></trkpt><trkpt lat="44.875789503566054" lon="7.762407186052519"><ele>239.0</ele><time>2026-05-02T12:29:12Z</time></trkpt><trkpt lat="44.87577702650111" lon="7.762514234356924"><ele>239.0</ele><time>2026-05-02T12:29:13Z</time></trkpt><trkpt lat="44.87592800610039" lon="7.762705152734787"><ele>239.0</ele><time>2026-05-02T12:29:15Z</time></trkpt><trkpt lat="44.87602791343795" lon="7.762817567261884"><ele>238.33333333333334</ele><time>2026-05-02T12:29:16Z</time></trkpt><trkpt lat="44.876153707425644" lon="7.762951332076661"><ele>237.66666666666669</ele><time>2026-05-02T12:29:17Z</time></trkpt><trkpt lat="44.876301839622656" lon="7.763110497154311"><ele>237.0</ele><time>2026-05-02T12:29:18Z</time></trkpt><trkpt lat="44.87646349355674" lon="7.76328269306413"><ele>237.0</ele><time>2026-05-02T12:29:19Z</time></trkpt><trkpt lat="44.87664524907936" lon="7.76346815504481"><ele>237.0</ele><time>2026-05-02T12:29:20Z</time></trkpt><trkpt lat="44.87683731096681" lon="7.763668165536479"><ele>238.5</ele><time>2026-05-02T12:29:21Z</time></trkpt><trkpt lat="44.87704356817919" lon="7.763887136247587"><ele>240.0</ele><time>2026-05-02T12:29:22Z</time></trkpt><trkpt lat="44.87725588229907" lon="7.764110201575293"><ele>240.0</ele><time>2026-05-02T12:29:23Z</time></trkpt><trkpt lat="44.87746627543627" lon="7.764334628952404"><ele>240.0</ele><time>2026-05-02T12:29:24Z</time></trkpt><trkpt lat="44.877676635475055" lon="7.7645589297458075"><ele>240.0</ele><time>2026-05-02T12:29:25Z</time></trkpt><trkpt lat="44.877892578506454" lon="7.764784256056469"><ele>240.0</ele><time>2026-05-02T12:29:26Z</time></trkpt><trkpt lat="44.87811336587594" lon="7.765018362389358"><ele>240.5</ele><time>2026-05-02T12:29:27Z</time></trkpt><trkpt lat="44.87833710120354" lon="7.765257878334739"><ele>241.0</ele><time>2026-05-02T12:29:28Z</time></trkpt><trkpt lat="44.87856526181783" lon="7.765500462806123"><ele>241.0</ele><time>2026-05-02T12:29:29Z</time></trkpt><trkpt lat="44.87879549254723" lon="7.765743751996285"><ele>241.0</ele><time>2026-05-02T12:29:30Z</time></trkpt><trkpt lat="44.8790313018634" lon="7.765991080918153"><ele>239.0</ele><time>2026-05-02T12:29:31Z</time></trkpt><trkpt lat="44.87927287177342" lon="7.76624611547673"><ele>237.0</ele><time>2026-05-02T12:29:32Z</time></trkpt><trkpt lat="44.879512612964035" lon="7.766502261324392"><ele>237.0</ele><time>2026-05-02T12:29:33Z</time></trkpt><trkpt lat="44.87975833031021" lon="7.76676184002712"><ele>237.0</ele><time>2026-05-02T12:29:34Z</time></trkpt><trkpt lat="44.87999822261428" lon="7.767016510318734"><ele>238.0</ele><time>2026-05-02T12:29:35Z</time></trkpt><trkpt lat="44.88024436489366" lon="7.767274882270883"><ele>239.0</ele><time>2026-05-02T12:29:36Z</time></trkpt><trkpt lat="44.88048494553692" lon="7.767531519729136"><ele>239.5</ele><time>2026-05-02T12:29:37Z</time></trkpt><trkpt lat="44.88071323700985" lon="7.767773686994423"><ele>240.0</ele><time>2026-05-02T12:29:38Z</time></trkpt><trkpt lat="44.88092572822123" lon="7.76799475913604"><ele>239.0</ele><time>2026-05-02T12:29:39Z</time></trkpt><trkpt lat="44.881118741258156" lon="7.768202935009747"><ele>238.0</ele><time>2026-05-02T12:29:40Z</time></trkpt><trkpt lat="44.88130453688679" lon="7.768400805889065"><ele>238.33333333333331</ele><time>2026-05-02T12:29:41Z</time></trkpt><trkpt lat="44.8814756233171" lon="7.7685824339914085"><ele>238.66666666666669</ele><time>2026-05-02T12:29:42Z</time></trkpt><trkpt lat="44.88164482164093" lon="7.768758617631324"><ele>239.0</ele><time>2026-05-02T12:29:43Z</time></trkpt><trkpt lat="44.88180378981944" lon="7.768924923114685"><ele>239.0</ele><time>2026-05-02T12:29:44Z</time></trkpt><trkpt lat="44.8819468948481" lon="7.769105106947978"><ele>239.0</ele><time>2026-05-02T12:29:45Z</time></trkpt><trkpt lat="44.88210165368967" lon="7.769268318379509"><ele>239.0</ele><time>2026-05-02T12:29:46Z</time></trkpt><trkpt lat="44.88227935563534" lon="7.7694258265493055"><ele>239.0</ele><time>2026-05-02T12:29:47Z</time></trkpt><trkpt lat="44.882457262943376" lon="7.769613237598762"><ele>239.0</ele><time>2026-05-02T12:29:48Z</time></trkpt><trkpt lat="44.88263392633337" lon="7.769826575038226"><ele>239.0</ele><time>2026-05-02T12:29:49Z</time></trkpt><trkpt lat="44.88282029109108" lon="7.770023363410564"><ele>239.0</ele><time>2026-05-02T12:29:50Z</time></trkpt><trkpt lat="44.88300287215162" lon="7.7702171848603525"><ele>239.33333333333334</ele><time>2026-05-02T12:29:51Z</time></trkpt><trkpt lat="44.8831718192403" lon="7.77041580434918"><ele>239.66666666666669</ele><time>2026-05-02T12:29:52Z</time></trkpt><trkpt lat="44.8833330817789" lon="7.770645996906916"><ele>240.0</ele><time>2026-05-02T12:29:53Z</time></trkpt><trkpt lat="44.88348463672666" lon="7.770886649207453"><ele>238.5</ele><time>2026-05-02T12:29:54Z</time></trkpt><trkpt lat="44.883640755414795" lon="7.771136264745358"><ele>237.0</ele><time>2026-05-02T12:29:55Z</time></trkpt><trkpt lat="44.88379984919089" lon="7.771392726719719"><ele>237.0</ele><time>2026-05-02T12:29:56Z</time></trkpt><trkpt lat="44.88396181922436" lon="7.77165382564989"><ele>237.0</ele><time>2026-05-02T12:29:57Z</time></trkpt><trkpt lat="44.88412492564285" lon="7.7719148069251895"><ele>237.0</ele><time>2026-05-02T12:29:58Z</time></trkpt><trkpt lat="44.88428811042494" lon="7.77217530213195"><ele>237.0</ele><time>2026-05-02T12:29:59Z</time></trkpt><trkpt lat="44.884452216108784" lon="7.77244146986775"><ele>238.5</ele><time>2026-05-02T12:30:00Z</time></trkpt><trkpt lat="44.88461169611652" lon="7.77270416019734"><ele>240.0</ele><time>2026-05-02T12:30:01Z</time></trkpt><trkpt lat="44.884752626991144" lon="7.772938649890562"><ele>240.0</ele><time>2026-05-02T12:30:02Z</time></trkpt><trkpt lat="44.88488639816469" lon="7.773161224041045"><ele>240.0</ele><time>2026-05-02T12:30:03Z</time></trkpt><trkpt lat="44.88502535651028" lon="7.773392420670116"><ele>240.0</ele><time>2026-05-02T12:30:04Z</time></trkpt><trkpt lat="44.885173445625206" lon="7.773638808926496"><ele>241.0</ele><time>2026-05-02T12:30:05Z</time></trkpt><trkpt lat="44.88534344604061" lon="7.7738701430197485"><ele>242.0</ele><time>2026-05-02T12:30:06Z</time></trkpt><trkpt lat="44.88550003617737" lon="7.774121190428529"><ele>241.0</ele><time>2026-05-02T12:30:07Z</time></trkpt><trkpt lat="44.88565871906604" lon="7.774384793037499"><ele>240.0</ele><time>2026-05-02T12:30:08Z</time></trkpt><trkpt lat="44.885821392387456" lon="7.774637871547881"><ele>240.0</ele><time>2026-05-02T12:30:09Z</time></trkpt><trkpt lat="44.88598978900526" lon="7.774898773875514"><ele>240.0</ele><time>2026-05-02T12:30:10Z</time></trkpt><trkpt lat="44.88615129857432" lon="7.775155140619462"><ele>239.66666666666669</ele><time>2026-05-02T12:30:11Z</time></trkpt><trkpt lat="44.886297777952144" lon="7.775388378150318"><ele>239.33333333333334</ele><time>2026-05-02T12:30:12Z</time></trkpt><trkpt lat="44.88643270254511" lon="7.775608860322704"><ele>239.0</ele><time>2026-05-02T12:30:13Z</time></trkpt><trkpt lat="44.88656238105543" lon="7.775817736641699"><ele>239.0</ele><time>2026-05-02T12:30:14Z</time></trkpt><trkpt lat="44.88668206475895" lon="7.776012468457214"><ele>239.0</ele><time>2026-05-02T12:30:15Z</time></trkpt><trkpt lat="44.886803731962324" lon="7.776220563942331"><ele>239.0</ele><time>2026-05-02T12:30:16Z</time></trkpt><trkpt lat="44.88692634109596" lon="7.776433610751423"><ele>239.33333333333334</ele><time>2026-05-02T12:30:17Z</time></trkpt><trkpt lat="44.887059933051795" lon="7.77663871470151"><ele>239.66666666666669</ele><time>2026-05-02T12:30:18Z</time></trkpt><trkpt lat="44.88720980259302" lon="7.776832630560038"><ele>240.0</ele><time>2026-05-02T12:30:19Z</time></trkpt><trkpt lat="44.887376008522324" lon="7.776992903120699"><ele>240.0</ele><time>2026-05-02T12:30:20Z</time></trkpt><trkpt lat="44.887566337494405" lon="7.777131784926188"><ele>240.0</ele><time>2026-05-02T12:30:21Z</time></trkpt><trkpt lat="44.887762740245364" lon="7.7772474724848335"><ele>240.0</ele><time>2026-05-02T12:30:22Z</time></trkpt><trkpt lat="44.887962779230826" lon="7.777388781865193"><ele>240.0</ele><time>2026-05-02T12:30:23Z</time></trkpt><trkpt lat="44.88816347385834" lon="7.777516361949426"><ele>240.0</ele><time>2026-05-02T12:30:24Z</time></trkpt><trkpt lat="44.88836956845216" lon="7.777649052454925"><ele>240.0</ele><time>2026-05-02T12:30:25Z</time></trkpt><trkpt lat="44.888574067267" lon="7.777786015622733"><ele>240.0</ele><time>2026-05-02T12:30:26Z</time></trkpt><trkpt lat="44.88877352366795" lon="7.777915750692127"><ele>240.0</ele><time>2026-05-02T12:30:27Z</time></trkpt><trkpt lat="44.88895370744077" lon="7.7780375047501495"><ele>240.0</ele><time>2026-05-02T12:30:28Z</time></trkpt><trkpt lat="44.88913235409943" lon="7.7781622006815025"><ele>240.0</ele><time>2026-05-02T12:30:29Z</time></trkpt><trkpt lat="44.889319621344875" lon="7.778284906555366"><ele>240.0</ele><time>2026-05-02T12:30:30Z</time></trkpt><trkpt lat="44.8895088725166" lon="7.778406879365512"><ele>240.0</ele><time>2026-05-02T12:30:31Z</time></trkpt><trkpt lat="44.88968672200816" lon="7.778527170762203"><ele>240.0</ele><time>2026-05-02T12:30:32Z</time></trkpt><trkpt lat="44.88985486430678" lon="7.778638620241747"><ele>240.0</ele><time>2026-05-02T12:30:33Z</time></trkpt><trkpt lat="44.89002257901074" lon="7.778753387061354"><ele>240.0</ele><time>2026-05-02T12:30:34Z</time></trkpt><trkpt lat="44.890199789122306" lon="7.778876863418962"><ele>240.0</ele><time>2026-05-02T12:30:35Z</time></trkpt><trkpt lat="44.890381446809165" lon="7.77899345880076"><ele>240.0</ele><time>2026-05-02T12:30:36Z</time></trkpt><trkpt lat="44.89056106625593" lon="7.779104712199847"><ele>240.0</ele><time>2026-05-02T12:30:37Z</time></trkpt><trkpt lat="44.89072412029871" lon="7.779210644667875"><ele>240.0</ele><time>2026-05-02T12:30:38Z</time></trkpt><trkpt lat="44.89087734979577" lon="7.779313708344825"><ele>240.0</ele><time>2026-05-02T12:30:39Z</time></trkpt><trkpt lat="44.89101728330895" lon="7.779408236662794"><ele>240.0</ele><time>2026-05-02T12:30:40Z</time></trkpt><trkpt lat="44.89113582755047" lon="7.779490045377384"><ele>242.0</ele><time>2026-05-02T12:30:41Z</time></trkpt><trkpt lat="44.891228121217644" lon="7.779551404241766"><ele>242.0</ele><time>2026-05-02T12:30:42Z</time></trkpt><trkpt lat="44.891297099854874" lon="7.779599533579957"><ele>242.0</ele><time>2026-05-02T12:30:43Z</time></trkpt><trkpt lat="44.89138661058293" lon="7.779657749258891"><ele>242.0</ele><time>2026-05-02T12:30:45Z</time></trkpt></trkseg></trk></gpx>